Observation data for Tarzan on 08/13/2019      Previous  Date       Current Mesonet Observations  Soil Data  Daily Summary Page  Observations in Plain Language
KTA1 130500Z 20008KT 31/13 A2991 RMK A01 T03060129  RH  034%=      5-min Rain = 0
KTA1 130501Z 20008KT 31/13 A2991 RMK A01 T03060129  RH  034%=      5-min Rain = 0
KTA1 130502Z 20008KT 31/13 A2991 RMK A01 T03060130  RH  034%=      5-min Rain = 0
KTA1 130503Z 20008KT 31/13 A2991 RMK A01 T03070130  RH  034%=      5-min Rain = 0
KTA1 130504Z 20008KT 31/13 A2991 RMK A01 T03070131  RH  034%=      5-min Rain = 0
KTA1 130505Z 20007KT 31/13 A2991 RMK A01 T03070131  RH  034%=      5-min Rain = 0
KTA1 130506Z 20007KT 31/13 A2991 RMK A01 T03070131  RH  034%=      5-min Rain = 0
KTA1 130507Z 20007KT 31/13 A2991 RMK A01 T03070131  RH  034%=      5-min Rain = 0
KTA1 130508Z 20006KT 31/13 A2991 RMK A01 T03080132  RH  034%=      5-min Rain = 0
KTA1 130509Z 20006KT 31/13 A2991 RMK A01 T03070131  RH  034%=      5-min Rain = 0
KTA1 130510Z 20006KT 31/13 A2991 RMK A01 T03060132  RH  034%=      5-min Rain = 0
KTA1 130511Z 20006KT 31/13 A2991 RMK A01 T03050132  RH  035%=      5-min Rain = 0
KTA1 130512Z 20006KT 31/13 A2991 RMK A01 T03050132  RH  035%=      5-min Rain = 0
KTA1 130513Z 20006KT 30/13 A2991 RMK A01 T03040132  RH  035%=      5-min Rain = 0
KTA1 130514Z 20006KT 30/13 A2991 RMK A01 T03040132  RH  035%=      5-min Rain = 0
KTA1 130515Z 20006KT 30/13 A2991 RMK A01 T03030132  RH  035%=      5-min Rain = 0
KTA1 130516Z 20006KT 30/13 A2991 RMK A01 T03030132  RH  035%=      5-min Rain = 0
KTA1 130517Z 20006KT 30/13 A2991 RMK A01 T03020132  RH  035%=      5-min Rain = 0
KTA1 130518Z 20005KT 30/13 A2991 RMK A01 T03010132  RH  036%=      5-min Rain = 0
KTA1 130519Z 20005KT 30/13 A2991 RMK A01 T03000132  RH  036%=      5-min Rain = 0
KTA1 130520Z 20005KT 30/13 A2991 RMK A01 T03000132  RH  036%=      5-min Rain = 0
KTA1 130521Z 20005KT 30/13 A2991 RMK A01 T02990133  RH  036%=      5-min Rain = 0
KTA1 130522Z 19005KT 30/13 A2991 RMK A01 T02980133  RH  036%=      5-min Rain = 0
KTA1 130523Z 19006KT 30/13 A2991 RMK A01 T02960133  RH  037%=      5-min Rain = 0
KTA1 130524Z 19006KT 30/13 A2992 RMK A01 T02960133  RH  037%=      5-min Rain = 0
KTA1 130525Z 19006KT 30/13 A2992 RMK A01 T02950133  RH  037%=      5-min Rain = 0
KTA1 130526Z 18006KT 30/13 A2992 RMK A01 T02950133  RH  037%=      5-min Rain = 0
KTA1 130527Z 18006KT 29/13 A2992 RMK A01 T02940133  RH  037%=      5-min Rain = 0
KTA1 130528Z 18007KT 29/13 A2992 RMK A01 T02940133  RH  037%=      5-min Rain = 0
KTA1 130529Z 18007KT 29/13 A2992 RMK A01 T02940133  RH  037%=      5-min Rain = 0
KTA1 130530Z 18006KT 30/13 A2992 RMK A01 T02950134  RH  037%=      5-min Rain = 0
KTA1 130531Z 18006KT 30/14 A2992 RMK A01 T02950135  RH  037%=      5-min Rain = 0
KTA1 130532Z 18006KT 30/14 A2992 RMK A01 T02970136  RH  037%=      5-min Rain = 0
KTA1 130533Z 16005KT 30/14 A2992 RMK A01 T02970137  RH  038%=      5-min Rain = 0
KTA1 130534Z 14006KT 30/14 A2992 RMK A01 T02970137  RH  038%=      5-min Rain = 0
KTA1 130535Z 15006KT 30/14 A2992 RMK A01 T02960135  RH  037%=      5-min Rain = 0
KTA1 130536Z 16006KT 29/13 A2992 RMK A01 T02930134  RH  038%=      5-min Rain = 0
KTA1 130537Z 16005KT 29/13 A2992 RMK A01 T02920134  RH  038%=      5-min Rain = 0
KTA1 130538Z 16006KT 29/14 A2992 RMK A01 T02910135  RH  038%=      5-min Rain = 0
KTA1 130539Z 17006KT 29/14 A2992 RMK A01 T02910136  RH  039%=      5-min Rain = 0
KTA1 130540Z 17006KT 29/14 A2992 RMK A01 T02910136  RH  039%=      5-min Rain = 0
KTA1 130541Z 16007KT 29/14 A2992 RMK A01 T02920137  RH  039%=      5-min Rain = 0
KTA1 130542Z 18007KT 29/14 A2992 RMK A01 T02930139  RH  039%=      5-min Rain = 0
KTA1 130543Z 18006KT 30/14 A2992 RMK A01 T02950140  RH  039%=      5-min Rain = 0
KTA1 130544Z 18006KT 30/14 A2992 RMK A01 T02970141  RH  039%=      5-min Rain = 0
KTA1 130545Z 18006KT 30/14 A2992 RMK A01 T02980141  RH  038%=      5-min Rain = 0
KTA1 130546Z 18006KT 30/14 A2992 RMK A01 T02990142  RH  038%=      5-min Rain = 0
KTA1 130547Z 19007KT 30/14 A2992 RMK A01 T03010143  RH  038%=      5-min Rain = 0
KTA1 130548Z 19008KT 30/14 A2992 RMK A01 T03020144  RH  038%=      5-min Rain = 0
KTA1 130549Z 19008KT 30/14 A2992 RMK A01 T03030144  RH  038%=      5-min Rain = 0
KTA1 130550Z 19008KT 30/14 A2992 RMK A01 T03030144  RH  038%=      5-min Rain = 0
KTA1 130551Z 19007KT 30/14 A2992 RMK A01 T03030144  RH  038%=      5-min Rain = 0
KTA1 130552Z 20008KT 30/14 A2992 RMK A01 T03020144  RH  038%=      5-min Rain = 0
KTA1 130553Z 20008KT 30/15 A2992 RMK A01 T03010145  RH  039%=      5-min Rain = 0
KTA1 130554Z 20007KT 30/15 A2992 RMK A01 T03010145  RH  039%=      5-min Rain = 0
KTA1 130555Z 20006KT 30/15 A2992 RMK A01 T03000145  RH  039%=      5-min Rain = 0
KTA1 130556Z 20006KT 30/15 A2992 RMK A01 T03010145  RH  039%=      5-min Rain = 0
KTA1 130557Z 20006KT 30/15 A2992 RMK A01 T03000145  RH  039%=      5-min Rain = 0
KTA1 130558Z 20007KT 30/15 A2992 RMK A01 T03000145  RH  039%=      5-min Rain = 0
KTA1 130559Z 20007KT 30/15 A2992 RMK A01 T02990145  RH  039%=      5-min Rain = 0
KTA1 130600Z 20008KT 30/15 A2992 RMK A01 T02990146  RH  039%=      5-min Rain = 0
KTA1 130601Z 20006KT 30/15 A2992 RMK A01 T02990146  RH  039%=      5-min Rain = 0
KTA1 130602Z 20006KT 30/15 A2992 RMK A01 T02990146  RH  039%=      5-min Rain = 0
KTA1 130603Z 21006KT 30/15 A2992 RMK A01 T02990146  RH  039%=      5-min Rain = 0
KTA1 130604Z 21007KT 30/15 A2992 RMK A01 T02990147  RH  040%=      5-min Rain = 0
KTA1 130605Z 21006KT 30/15 A2992 RMK A01 T02990147  RH  040%=      5-min Rain = 0
KTA1 130606Z 21006KT 30/15 A2993 RMK A01 T02990147  RH  040%=      5-min Rain = 0
KTA1 130607Z 21007KT 30/15 A2993 RMK A01 T03000148  RH  040%=      5-min Rain = 0
KTA1 130608Z 21007KT 30/15 A2993 RMK A01 T03010149  RH  040%=      5-min Rain = 0
KTA1 130609Z 21007KT 30/15 A2993 RMK A01 T03010150  RH  040%=      5-min Rain = 0
KTA1 130610Z 21007KT 30/15 A2993 RMK A01 T03020150  RH  040%=      5-min Rain = 0
KTA1 130611Z 20007KT 30/15 A2993 RMK A01 T03030150  RH  040%=      5-min Rain = 0
KTA1 130612Z 21006KT 30/15 A2993 RMK A01 T03030151  RH  040%=      5-min Rain = 0
KTA1 130613Z 21007KT 30/15 A2993 RMK A01 T03020152  RH  040%=      5-min Rain = 0
KTA1 130614Z 21007KT 30/15 A2993 RMK A01 T03020153  RH  040%=      5-min Rain = 0
KTA1 130615Z 21007KT 30/15 A2993 RMK A01 T03030154  RH  040%=      5-min Rain = 0
KTA1 130616Z 22005KT 31/16 A2993 RMK A01 T03050155  RH  040%=      5-min Rain = 0
KTA1 130617Z 23005KT 31/15 A2993 RMK A01 T03060153  RH  040%=      5-min Rain = 0
KTA1 130618Z 23006KT 31/15 A2993 RMK A01 T03050153  RH  040%=      5-min Rain = 0
KTA1 130619Z 23005KT 31/15 A2993 RMK A01 T03050152  RH  040%=      5-min Rain = 0
KTA1 130620Z 22006KT 31/15 A2993 RMK A01 T03050151  RH  039%=      5-min Rain = 0
KTA1 130621Z 22006KT 31/15 A2993 RMK A01 T03050152  RH  039%=      5-min Rain = 0
KTA1 130622Z 22006KT 31/15 A2993 RMK A01 T03050152  RH  040%=      5-min Rain = 0
KTA1 130623Z 22005KT 31/15 A2993 RMK A01 T03050152  RH  040%=      5-min Rain = 0
KTA1 130624Z 22006KT 31/15 A2993 RMK A01 T03050153  RH  040%=      5-min Rain = 0
KTA1 130625Z 21005KT 31/15 A2993 RMK A01 T03060153  RH  039%=      5-min Rain = 0
KTA1 130626Z 20007KT 31/15 A2993 RMK A01 T03060153  RH  040%=      5-min Rain = 0
KTA1 130627Z 21006KT 31/16 A2993 RMK A01 T03070155  RH  040%=      5-min Rain = 0
KTA1 130628Z 21007KT 31/16 A2993 RMK A01 T03070156  RH  040%=      5-min Rain = 0
KTA1 130629Z 21006KT 31/16 A2993 RMK A01 T03070157  RH  040%=      5-min Rain = 0
KTA1 130630Z 21007KT 31/16 A2993 RMK A01 T03080157  RH  040%=      5-min Rain = 0
KTA1 130631Z 21008KT 31/16 A2993 RMK A01 T03090158  RH  040%=      5-min Rain = 0
KTA1 130632Z 21007KT 31/16 A2993 RMK A01 T03100158  RH  040%=      5-min Rain = 0
KTA1 130633Z 20008KT 31/16 A2993 RMK A01 T03110158  RH  040%=      5-min Rain = 0
KTA1 130634Z 20009KT 31/16 A2993 RMK A01 T03120159  RH  040%=      5-min Rain = 0
KTA1 130635Z 20007KT 31/16 A2993 RMK A01 T03120159  RH  040%=      5-min Rain = 0
KTA1 130636Z 21008KT 31/16 A2993 RMK A01 T03130159  RH  040%=      5-min Rain = 0
KTA1 130637Z 21008KT 31/16 A2993 RMK A01 T03120159  RH  040%=      5-min Rain = 0
KTA1 130638Z 21007KT 31/16 A2993 RMK A01 T03120159  RH  040%=      5-min Rain = 0
KTA1 130639Z 21009KT 31/16 A2993 RMK A01 T03110159  RH  040%=      5-min Rain = 0
KTA1 130640Z 22008KT 31/16 A2993 RMK A01 T03120159  RH  040%=      5-min Rain = 0
KTA1 130641Z 22007KT 31/16 A2993 RMK A01 T03120159  RH  040%=      5-min Rain = 0
KTA1 130642Z 21007KT 31/16 A2993 RMK A01 T03120159  RH  040%=      5-min Rain = 0
KTA1 130643Z 20007KT 31/16 A2993 RMK A01 T03120159  RH  040%=      5-min Rain = 0
KTA1 130644Z 20008KT 31/16 A2993 RMK A01 T03120160  RH  040%=      5-min Rain = 0
KTA1 130645Z 20008KT 31/16 A2993 RMK A01 T03110160  RH  040%=      5-min Rain = 0
KTA1 130646Z 20008KT 31/16 A2993 RMK A01 T03110160  RH  040%=      5-min Rain = 0
KTA1 130647Z 20007KT 31/16 A2993 RMK A01 T03110160  RH  040%=      5-min Rain = 0
KTA1 130648Z 20007KT 31/16 A2993 RMK A01 T03100159  RH  040%=      5-min Rain = 0
KTA1 130649Z 20007KT 31/16 A2993 RMK A01 T03100159  RH  040%=      5-min Rain = 0
KTA1 130650Z 20008KT 31/16 A2993 RMK A01 T03100160  RH  040%=      5-min Rain = 0
KTA1 130651Z 21006KT 31/16 A2993 RMK A01 T03100160  RH  040%=      5-min Rain = 0
KTA1 130652Z 20007KT 31/16 A2993 RMK A01 T03100159  RH  040%=      5-min Rain = 0
KTA1 130653Z 20007KT 31/16 A2993 RMK A01 T03100159  RH  040%=      5-min Rain = 0
KTA1 130654Z 20007KT 31/16 A2993 RMK A01 T03100159  RH  040%=      5-min Rain = 0
KTA1 130655Z 20008KT 31/16 A2993 RMK A01 T03100160  RH  040%=      5-min Rain = 0
KTA1 130656Z 21007KT 31/16 A2993 RMK A01 T03100159  RH  040%=      5-min Rain = 0
KTA1 130657Z 20006KT 31/16 A2993 RMK A01 T03110159  RH  040%=      5-min Rain = 0
KTA1 130658Z 20006KT 31/16 A2993 RMK A01 T03100159  RH  040%=      5-min Rain = 0
KTA1 130659Z 21006KT 31/16 A2993 RMK A01 T03090159  RH  040%=      5-min Rain = 0
KTA1 130700Z 20006KT 31/16 A2993 RMK A01 T03080159  RH  041%=      5-min Rain = 0
KTA1 130701Z 21006KT 31/16 A2993 RMK A01 T03070158  RH  041%=      5-min Rain = 0
KTA1 130702Z 21006KT 31/16 A2993 RMK A01 T03060159  RH  041%=      5-min Rain = 0
KTA1 130703Z 21006KT 31/16 A2993 RMK A01 T03050158  RH  041%=      5-min Rain = 0
KTA1 130704Z 21006KT 30/16 A2993 RMK A01 T03040159  RH  041%=      5-min Rain = 0
KTA1 130705Z 21005KT 30/16 A2993 RMK A01 T03040159  RH  041%=      5-min Rain = 0
KTA1 130706Z 21005KT 30/16 A2993 RMK A01 T03040159  RH  042%=      5-min Rain = 0
KTA1 130707Z 21005KT 30/16 A2993 RMK A01 T03040159  RH  042%=      5-min Rain = 0
KTA1 130708Z 20005KT 30/16 A2993 RMK A01 T03030159  RH  042%=      5-min Rain = 0
KTA1 130709Z 20005KT 30/16 A2993 RMK A01 T03030159  RH  042%=      5-min Rain = 0
KTA1 130710Z 20005KT 30/16 A2993 RMK A01 T03020159  RH  042%=      5-min Rain = 0
KTA1 130711Z 21005KT 30/16 A2993 RMK A01 T03010159  RH  042%=      5-min Rain = 0
KTA1 130712Z 21004KT 30/16 A2993 RMK A01 T03000158  RH  042%=      5-min Rain = 0
KTA1 130713Z 20006KT 30/16 A2993 RMK A01 T03000159  RH  043%=      5-min Rain = 0
KTA1 130714Z 20005KT 30/16 A2993 RMK A01 T02990159  RH  043%=      5-min Rain = 0
KTA1 130715Z 20004KT 30/16 A2993 RMK A01 T02990159  RH  043%=      5-min Rain = 0
KTA1 130716Z 20005KT 30/16 A2993 RMK A01 T02980159  RH  043%=      5-min Rain = 0
KTA1 130717Z 20005KT 30/16 A2993 RMK A01 T02960159  RH  043%=      5-min Rain = 0
KTA1 130718Z 19005KT 30/16 A2993 RMK A01 T02950159  RH  044%=      5-min Rain = 0
KTA1 130719Z 20006KT 29/16 A2993 RMK A01 T02940159  RH  044%=      5-min Rain = 0
KTA1 130720Z 20006KT 29/16 A2993 RMK A01 T02930159  RH  044%=      5-min Rain = 0
KTA1 130721Z 20007KT 29/16 A2993 RMK A01 T02930159  RH  044%=      5-min Rain = 0
KTA1 130722Z 20007KT 29/16 A2993 RMK A01 T02920159  RH  045%=      5-min Rain = 0
KTA1 130723Z 19007KT 29/16 A2993 RMK A01 T02920160  RH  045%=      5-min Rain = 0
KTA1 130724Z 19007KT 29/16 A2993 RMK A01 T02920160  RH  045%=      5-min Rain = 0
KTA1 130725Z 19007KT 29/16 A2993 RMK A01 T02940160  RH  044%=      5-min Rain = 0
KTA1 130726Z 19006KT 30/16 A2993 RMK A01 T02960161  RH  044%=      5-min Rain = 0
KTA1 130727Z 19006KT 30/16 A2993 RMK A01 T02970161  RH  044%=      5-min Rain = 0
KTA1 130728Z 19006KT 30/16 A2993 RMK A01 T02970161  RH  044%=      5-min Rain = 0
KTA1 130729Z 19005KT 30/16 A2993 RMK A01 T02980161  RH  044%=      5-min Rain = 0
KTA1 130730Z 20005KT 30/16 A2993 RMK A01 T02970161  RH  044%=      5-min Rain = 0
KTA1 130731Z 19006KT 30/16 A2993 RMK A01 T02960161  RH  044%=      5-min Rain = 0
KTA1 130732Z 19006KT 30/16 A2993 RMK A01 T02960161  RH  044%=      5-min Rain = 0
KTA1 130733Z 20006KT 30/16 A2993 RMK A01 T02960161  RH  044%=      5-min Rain = 0
KTA1 130734Z 21008KT 30/16 A2993 RMK A01 T02970161  RH  044%=      5-min Rain = 0
KTA1 130735Z 19005KT 30/16 A2993 RMK A01 T02970161  RH  044%=      5-min Rain = 0
KTA1 130736Z 20005KT 30/16 A2993 RMK A01 T02980161  RH  044%=      5-min Rain = 0
KTA1 130737Z 20005KT 30/16 A2993 RMK A01 T02980161  RH  044%=      5-min Rain = 0
KTA1 130738Z 20005KT 30/16 A2993 RMK A01 T02970161  RH  044%=      5-min Rain = 0
KTA1 130739Z 20006KT 30/16 A2993 RMK A01 T02970161  RH  044%=      5-min Rain = 0
KTA1 130740Z 20004KT 30/16 A2993 RMK A01 T02970161  RH  044%=      5-min Rain = 0
KTA1 130741Z 20006KT 30/16 A2993 RMK A01 T02970161  RH  044%=      5-min Rain = 0
KTA1 130742Z 20005KT 30/16 A2993 RMK A01 T02970161  RH  044%=      5-min Rain = 0
KTA1 130743Z 20005KT 30/16 A2993 RMK A01 T02970161  RH  044%=      5-min Rain = 0
KTA1 130744Z 20006KT 30/16 A2993 RMK A01 T02970161  RH  044%=      5-min Rain = 0
KTA1 130745Z 20005KT 30/16 A2993 RMK A01 T02970161  RH  044%=      5-min Rain = 0
KTA1 130746Z 21005KT 30/16 A2993 RMK A01 T02960160  RH  044%=      5-min Rain = 0
KTA1 130747Z 22004KT 30/16 A2993 RMK A01 T02960161  RH  044%=      5-min Rain = 0
KTA1 130748Z 22004KT 30/16 A2993 RMK A01 T02960161  RH  044%=      5-min Rain = 0
KTA1 130749Z 22004KT 30/16 A2993 RMK A01 T02960160  RH  044%=      5-min Rain = 0
KTA1 130750Z 22004KT 30/16 A2993 RMK A01 T02950160  RH  044%=      5-min Rain = 0
KTA1 130751Z 23004KT 30/16 A2993 RMK A01 T02950160  RH  044%=      5-min Rain = 0
KTA1 130752Z 23004KT 29/16 A2993 RMK A01 T02940160  RH  044%=      5-min Rain = 0
KTA1 130753Z 22004KT 29/16 A2993 RMK A01 T02930160  RH  045%=      5-min Rain = 0
KTA1 130754Z 23003KT 29/16 A2993 RMK A01 T02930160  RH  045%=      5-min Rain = 0
KTA1 130755Z 24004KT 29/16 A2993 RMK A01 T02920160  RH  045%=      5-min Rain = 0
KTA1 130756Z 23004KT 29/16 A2993 RMK A01 T02910160  RH  045%=      5-min Rain = 0
KTA1 130757Z 24003KT 29/16 A2993 RMK A01 T02910160  RH  045%=      5-min Rain = 0
KTA1 130758Z 23004KT 29/16 A2993 RMK A01 T02900160  RH  045%=      5-min Rain = 0
KTA1 130759Z 23004KT 29/16 A2993 RMK A01 T02900160  RH  045%=      5-min Rain = 0
KTA1 130800Z 23005KT 29/16 A2993 RMK A01 T02900160  RH  045%=      5-min Rain = 0
KTA1 130801Z 23004KT 29/16 A2993 RMK A01 T02890160  RH  045%=      5-min Rain = 0
KTA1 130802Z 25004KT 29/16 A2993 RMK A01 T02890160  RH  046%=      5-min Rain = 0
KTA1 130803Z 25004KT 29/16 A2993 RMK A01 T02890159  RH  045%=      5-min Rain = 0
KTA1 130804Z 24004KT 29/16 A2993 RMK A01 T02880159  RH  046%=      5-min Rain = 0
KTA1 130805Z 24004KT 29/16 A2993 RMK A01 T02890160  RH  046%=      5-min Rain = 0
KTA1 130806Z 24004KT 29/16 A2993 RMK A01 T02880160  RH  046%=      5-min Rain = 0
KTA1 130807Z 25004KT 29/16 A2993 RMK A01 T02870160  RH  046%=      5-min Rain = 0
KTA1 130808Z 25004KT 29/16 A2993 RMK A01 T02860160  RH  046%=      5-min Rain = 0
KTA1 130809Z 25004KT 29/16 A2994 RMK A01 T02850160  RH  046%=      5-min Rain = 0
KTA1 130810Z 25004KT 29/16 A2994 RMK A01 T02850160  RH  047%=      5-min Rain = 0
KTA1 130811Z 25004KT 28/16 A2994 RMK A01 T02840160  RH  047%=      5-min Rain = 0
KTA1 130812Z 25004KT 28/16 A2994 RMK A01 T02830160  RH  047%=      5-min Rain = 0
KTA1 130813Z 25004KT 28/16 A2994 RMK A01 T02830160  RH  047%=      5-min Rain = 0
KTA1 130814Z 25004KT 28/16 A2994 RMK A01 T02820160  RH  047%=      5-min Rain = 0
KTA1 130815Z 25003KT 28/16 A2994 RMK A01 T02820160  RH  047%=      5-min Rain = 0
KTA1 130816Z 25004KT 28/16 A2994 RMK A01 T02820160  RH  047%=      5-min Rain = 0
KTA1 130817Z 24004KT 28/16 A2994 RMK A01 T02810159  RH  048%=      5-min Rain = 0
KTA1 130818Z 24004KT 28/16 A2994 RMK A01 T02810159  RH  047%=      5-min Rain = 0
KTA1 130819Z 24003KT 28/16 A2994 RMK A01 T02820159  RH  047%=      5-min Rain = 0
KTA1 130820Z 25003KT 28/16 A2994 RMK A01 T02820159  RH  047%=      5-min Rain = 0
KTA1 130821Z 24003KT 28/16 A2994 RMK A01 T02820159  RH  047%=      5-min Rain = 0
KTA1 130822Z 24003KT 28/16 A2994 RMK A01 T02820159  RH  047%=      5-min Rain = 0
KTA1 130823Z 24003KT 28/16 A2994 RMK A01 T02820159  RH  047%=      5-min Rain = 0
KTA1 130824Z 25003KT 28/16 A2994 RMK A01 T02820159  RH  047%=      5-min Rain = 0
KTA1 130825Z 25003KT 28/16 A2994 RMK A01 T02810159  RH  047%=      5-min Rain = 0
KTA1 130826Z 24003KT 28/16 A2994 RMK A01 T02810159  RH  047%=      5-min Rain = 0
KTA1 130827Z 22004KT 28/16 A2994 RMK A01 T02810159  RH  047%=      5-min Rain = 0
KTA1 130828Z 22003KT 28/16 A2994 RMK A01 T02800159  RH  048%=      5-min Rain = 0
KTA1 130829Z 23003KT 28/16 A2994 RMK A01 T02800159  RH  048%=      5-min Rain = 0
KTA1 130830Z 23004KT 28/16 A2994 RMK A01 T02810158  RH  047%=      5-min Rain = 0
KTA1 130831Z 22004KT 28/16 A2994 RMK A01 T02800158  RH  047%=      5-min Rain = 0
KTA1 130832Z 22004KT 28/16 A2994 RMK A01 T02810158  RH  047%=      5-min Rain = 0
KTA1 130833Z 21006KT 28/16 A2994 RMK A01 T02810158  RH  047%=      5-min Rain = 0
KTA1 130834Z 20005KT 28/16 A2994 RMK A01 T02830158  RH  047%=      5-min Rain = 0
KTA1 130835Z 21005KT 29/16 A2994 RMK A01 T02850158  RH  046%=      5-min Rain = 0
KTA1 130836Z 22004KT 29/16 A2994 RMK A01 T02870158  RH  046%=      5-min Rain = 0
KTA1 130837Z 22004KT 29/16 A2994 RMK A01 T02870158  RH  046%=      5-min Rain = 0
KTA1 130838Z 21005KT 29/16 A2994 RMK A01 T02880158  RH  045%=      5-min Rain = 0
KTA1 130839Z 22005KT 29/16 A2994 RMK A01 T02890158  RH  045%=      5-min Rain = 0
KTA1 130840Z 22005KT 29/16 A2994 RMK A01 T02890158  RH  045%=      5-min Rain = 0
KTA1 130841Z 21005KT 29/16 A2994 RMK A01 T02900158  RH  045%=      5-min Rain = 0
KTA1 130842Z 22005KT 29/16 A2994 RMK A01 T02890158  RH  045%=      5-min Rain = 0
KTA1 130843Z 22005KT 29/16 A2994 RMK A01 T02890158  RH  045%=      5-min Rain = 0
KTA1 130844Z 22004KT 29/16 A2994 RMK A01 T02880158  RH  045%=      5-min Rain = 0
KTA1 130845Z 22004KT 29/16 A2994 RMK A01 T02880158  RH  045%=      5-min Rain = 0
KTA1 130846Z 22004KT 29/16 A2994 RMK A01 T02870158  RH  045%=      5-min Rain = 0
KTA1 130847Z 23004KT 29/16 A2994 RMK A01 T02870158  RH  046%=      5-min Rain = 0
KTA1 130848Z 22004KT 29/16 A2994 RMK A01 T02860158  RH  046%=      5-min Rain = 0
KTA1 130849Z 22004KT 29/16 A2994 RMK A01 T02860158  RH  046%=      5-min Rain = 0
KTA1 130850Z 22004KT 29/16 A2994 RMK A01 T02860157  RH  046%=      5-min Rain = 0
KTA1 130851Z 21005KT 29/16 A2994 RMK A01 T02850158  RH  046%=      5-min Rain = 0
KTA1 130852Z 20005KT 28/16 A2994 RMK A01 T02840157  RH  046%=      5-min Rain = 0
KTA1 130853Z 20005KT 28/16 A2994 RMK A01 T02830157  RH  046%=      5-min Rain = 0
KTA1 130854Z 19005KT 28/16 A2994 RMK A01 T02820157  RH  047%=      5-min Rain = 0
KTA1 130855Z 19005KT 28/16 A2994 RMK A01 T02820157  RH  047%=      5-min Rain = 0
KTA1 130856Z 20005KT 28/16 A2994 RMK A01 T02810157  RH  047%=      5-min Rain = 0
KTA1 130857Z 20004KT 28/16 A2994 RMK A01 T02810158  RH  047%=      5-min Rain = 0
KTA1 130858Z 20004KT 28/16 A2994 RMK A01 T02810157  RH  047%=      5-min Rain = 0
KTA1 130859Z 20004KT 28/16 A2994 RMK A01 T02810157  RH  047%=      5-min Rain = 0
KTA1 130900Z 21006KT 28/16 A2994 RMK A01 T02810157  RH  047%=      5-min Rain = 0
KTA1 130901Z 20006KT 28/16 A2994 RMK A01 T02810157  RH  047%=      5-min Rain = 0
KTA1 130902Z 19005KT 28/16 A2994 RMK A01 T02820157  RH  046%=      5-min Rain = 0
KTA1 130903Z 18006KT 28/16 A2994 RMK A01 T02830157  RH  046%=      5-min Rain = 0
KTA1 130904Z 17005KT 28/16 A2994 RMK A01 T02820157  RH  047%=      5-min Rain = 0
KTA1 130905Z 18006KT 28/16 A2994 RMK A01 T02810157  RH  047%=      5-min Rain = 0
KTA1 130906Z 18006KT 28/16 A2994 RMK A01 T02790157  RH  047%=      5-min Rain = 0
KTA1 130907Z 19006KT 28/16 A2994 RMK A01 T02790157  RH  047%=      5-min Rain = 0
KTA1 130908Z 18005KT 28/16 A2994 RMK A01 T02790157  RH  047%=      5-min Rain = 0
KTA1 130909Z 17005KT 28/16 A2994 RMK A01 T02790157  RH  047%=      5-min Rain = 0
KTA1 130910Z 17004KT 28/16 A2994 RMK A01 T02790157  RH  047%=      5-min Rain = 0
KTA1 130911Z 17003KT 28/16 A2994 RMK A01 T02790156  RH  047%=      5-min Rain = 0
KTA1 130912Z 16004KT 28/16 A2994 RMK A01 T02780156  RH  047%=      5-min Rain = 0
KTA1 130913Z 17004KT 28/16 A2994 RMK A01 T02770157  RH  048%=      5-min Rain = 0
KTA1 130914Z 17005KT 28/16 A2994 RMK A01 T02760157  RH  048%=      5-min Rain = 0
KTA1 130915Z 17004KT 28/16 A2994 RMK A01 T02750157  RH  048%=      5-min Rain = 0
KTA1 130916Z 17004KT 27/16 A2994 RMK A01 T02740157  RH  049%=      5-min Rain = 0
KTA1 130917Z 17005KT 27/16 A2994 RMK A01 T02740157  RH  049%=      5-min Rain = 0
KTA1 130918Z 17005KT 27/16 A2994 RMK A01 T02730157  RH  049%=      5-min Rain = 0
KTA1 130919Z 17005KT 27/16 A2994 RMK A01 T02730157  RH  049%=      5-min Rain = 0
KTA1 130920Z 17005KT 27/16 A2994 RMK A01 T02730157  RH  049%=      5-min Rain = 0
KTA1 130921Z 17005KT 27/16 A2994 RMK A01 T02730156  RH  049%=      5-min Rain = 0
KTA1 130922Z 17005KT 27/16 A2994 RMK A01 T02730156  RH  049%=      5-min Rain = 0
KTA1 130923Z 18005KT 27/16 A2994 RMK A01 T02730157  RH  049%=      5-min Rain = 0
KTA1 130924Z 18005KT 27/16 A2994 RMK A01 T02730157  RH  049%=      5-min Rain = 0
KTA1 130925Z 18006KT 27/16 A2994 RMK A01 T02730157  RH  049%=      5-min Rain = 0
KTA1 130926Z 18007KT 27/16 A2994 RMK A01 T02740157  RH  049%=      5-min Rain = 0
KTA1 130927Z 18006KT 28/16 A2994 RMK A01 T02760157  RH  048%=      5-min Rain = 0
KTA1 130928Z 19006KT 28/16 A2994 RMK A01 T02780157  RH  048%=      5-min Rain = 0
KTA1 130929Z 19006KT 28/16 A2994 RMK A01 T02790157  RH  047%=      5-min Rain = 0
KTA1 130930Z 19006KT 28/16 A2994 RMK A01 T02800157  RH  047%=      5-min Rain = 0
KTA1 130931Z 19006KT 28/16 A2994 RMK A01 T02800158  RH  047%=      5-min Rain = 0
KTA1 130932Z 19006KT 28/16 A2994 RMK A01 T02800158  RH  048%=      5-min Rain = 0
KTA1 130933Z 19006KT 28/16 A2994 RMK A01 T02780157  RH  048%=      5-min Rain = 0
KTA1 130934Z 19006KT 28/16 A2994 RMK A01 T02770157  RH  048%=      5-min Rain = 0
KTA1 130935Z 19006KT 28/16 A2994 RMK A01 T02770157  RH  048%=      5-min Rain = 0
KTA1 130936Z 19006KT 28/16 A2994 RMK A01 T02760157  RH  048%=      5-min Rain = 0
KTA1 130937Z 19006KT 28/16 A2994 RMK A01 T02750157  RH  049%=      5-min Rain = 0
KTA1 130938Z 20006KT 28/16 A2994 RMK A01 T02750157  RH  049%=      5-min Rain = 0
KTA1 130939Z 20005KT 27/16 A2994 RMK A01 T02740157  RH  049%=      5-min Rain = 0
KTA1 130940Z 20005KT 27/16 A2994 RMK A01 T02740157  RH  049%=      5-min Rain = 0
KTA1 130941Z 20006KT 27/16 A2994 RMK A01 T02740157  RH  049%=      5-min Rain = 0
KTA1 130942Z 20006KT 27/16 A2994 RMK A01 T02730157  RH  049%=      5-min Rain = 0
KTA1 130943Z 20005KT 27/16 A2994 RMK A01 T02730157  RH  049%=      5-min Rain = 0
KTA1 130944Z 20005KT 27/16 A2994 RMK A01 T02720157  RH  049%=      5-min Rain = 0
KTA1 130945Z 21005KT 27/16 A2994 RMK A01 T02720157  RH  049%=      5-min Rain = 0
KTA1 130946Z 21005KT 27/16 A2994 RMK A01 T02720157  RH  049%=      5-min Rain = 0
KTA1 130947Z 21004KT 27/16 A2994 RMK A01 T02720157  RH  049%=      5-min Rain = 0
KTA1 130948Z 22004KT 27/16 A2994 RMK A01 T02710156  RH  049%=      5-min Rain = 0
KTA1 130949Z 23004KT 27/16 A2994 RMK A01 T02710156  RH  050%=      5-min Rain = 0
KTA1 130950Z 23004KT 27/16 A2994 RMK A01 T02700157  RH  050%=      5-min Rain = 0
KTA1 130951Z 24004KT 27/16 A2994 RMK A01 T02690157  RH  050%=      5-min Rain = 0
KTA1 130952Z 25003KT 27/16 A2994 RMK A01 T02680157  RH  051%=      5-min Rain = 0
KTA1 130953Z 26003KT 27/16 A2994 RMK A01 T02670157  RH  051%=      5-min Rain = 0
KTA1 130954Z 25003KT 27/16 A2994 RMK A01 T02650157  RH  051%=      5-min Rain = 0
KTA1 130955Z 25003KT 26/16 A2994 RMK A01 T02640156  RH  051%=      5-min Rain = 0
KTA1 130956Z 25003KT 26/16 A2994 RMK A01 T02630156  RH  052%=      5-min Rain = 0
KTA1 130957Z 26003KT 26/16 A2994 RMK A01 T02630156  RH  052%=      5-min Rain = 0
KTA1 130958Z 25003KT 26/16 A2994 RMK A01 T02620155  RH  052%=      5-min Rain = 0
KTA1 130959Z 25003KT 26/16 A2994 RMK A01 T02610155  RH  052%=      5-min Rain = 0
KTA1 131000Z 26003KT 26/16 A2994 RMK A01 T02600155  RH  052%=      5-min Rain = 0
KTA1 131001Z 26003KT 26/16 A2994 RMK A01 T02600155  RH  052%=      5-min Rain = 0
KTA1 131002Z 27003KT 26/16 A2994 RMK A01 T02590155  RH  052%=      5-min Rain = 0
KTA1 131003Z 28004KT 26/16 A2994 RMK A01 T02590155  RH  053%=      5-min Rain = 0
KTA1 131004Z 30004KT 26/16 A2994 RMK A01 T02580156  RH  053%=      5-min Rain = 0
KTA1 131005Z 29004KT 26/16 A2995 RMK A01 T02570156  RH  054%=      5-min Rain = 0
KTA1 131006Z 30004KT 26/16 A2995 RMK A01 T02560157  RH  054%=      5-min Rain = 0
KTA1 131007Z 30004KT 26/16 A2995 RMK A01 T02550157  RH  055%=      5-min Rain = 0
KTA1 131008Z 30004KT 25/16 A2995 RMK A01 T02540158  RH  055%=      5-min Rain = 0
KTA1 131009Z 30005KT 25/16 A2995 RMK A01 T02540158  RH  055%=      5-min Rain = 0
KTA1 131010Z 30005KT 25/16 A2995 RMK A01 T02540158  RH  055%=      5-min Rain = 0
KTA1 131011Z 31005KT 26/16 A2995 RMK A01 T02550158  RH  055%=      5-min Rain = 0
KTA1 131012Z 31006KT 26/16 A2995 RMK A01 T02550158  RH  055%=      5-min Rain = 0
KTA1 131013Z 31006KT 26/16 A2995 RMK A01 T02560158  RH  055%=      5-min Rain = 0
KTA1 131014Z 32006KT 26/16 A2995 RMK A01 T02560157  RH  054%=      5-min Rain = 0
KTA1 131015Z 32006KT 26/16 A2995 RMK A01 T02560156  RH  054%=      5-min Rain = 0
KTA1 131016Z 32006KT 26/16 A2995 RMK A01 T02560156  RH  054%=      5-min Rain = 0
KTA1 131017Z 32007KT 26/16 A2995 RMK A01 T02560156  RH  054%=      5-min Rain = 0
KTA1 131018Z 33007KT 26/16 A2995 RMK A01 T02560155  RH  054%=      5-min Rain = 0
KTA1 131019Z 33007KT 26/16 A2995 RMK A01 T02570155  RH  053%=      5-min Rain = 0
KTA1 131020Z 34007KT 26/16 A2995 RMK A01 T02570155  RH  053%=      5-min Rain = 0
KTA1 131021Z 34006KT 26/16 A2995 RMK A01 T02570155  RH  053%=      5-min Rain = 0
KTA1 131022Z 33006KT 26/15 A2995 RMK A01 T02570154  RH  053%=      5-min Rain = 0
KTA1 131023Z 33006KT 26/15 A2995 RMK A01 T02580154  RH  053%=      5-min Rain = 0
KTA1 131024Z 33006KT 26/15 A2995 RMK A01 T02580154  RH  053%=      5-min Rain = 0
KTA1 131025Z 33006KT 26/15 A2995 RMK A01 T02580154  RH  052%=      5-min Rain = 0
KTA1 131026Z 33006KT 26/15 A2995 RMK A01 T02580154  RH  052%=      5-min Rain = 0
KTA1 131027Z 33006KT 26/15 A2995 RMK A01 T02580154  RH  052%=      5-min Rain = 0
KTA1 131028Z 33006KT 26/15 A2995 RMK A01 T02580154  RH  052%=      5-min Rain = 0
KTA1 131029Z 33006KT 26/15 A2995 RMK A01 T02580154  RH  052%=      5-min Rain = 0
KTA1 131030Z 33006KT 26/15 A2995 RMK A01 T02580154  RH  052%=      5-min Rain = 0
KTA1 131031Z 33006KT 26/15 A2995 RMK A01 T02580154  RH  053%=      5-min Rain = 0
KTA1 131032Z 33006KT 26/15 A2995 RMK A01 T02580154  RH  053%=      5-min Rain = 0
KTA1 131033Z 33006KT 26/15 A2995 RMK A01 T02570154  RH  053%=      5-min Rain = 0
KTA1 131034Z 33006KT 26/15 A2995 RMK A01 T02570154  RH  053%=      5-min Rain = 0
KTA1 131035Z 33006KT 26/15 A2995 RMK A01 T02560153  RH  053%=      5-min Rain = 0
KTA1 131036Z 33005KT 26/15 A2995 RMK A01 T02570154  RH  053%=      5-min Rain = 0
KTA1 131037Z 33005KT 26/15 A2995 RMK A01 T02570154  RH  053%=      5-min Rain = 0
KTA1 131038Z 32005KT 26/15 A2995 RMK A01 T02560154  RH  053%=      5-min Rain = 0
KTA1 131039Z 32005KT 26/15 A2995 RMK A01 T02560154  RH  053%=      5-min Rain = 0
KTA1 131040Z 32005KT 26/15 A2995 RMK A01 T02560154  RH  053%=      5-min Rain = 0
KTA1 131041Z 32005KT 26/15 A2995 RMK A01 T02550154  RH  053%=      5-min Rain = 0
KTA1 131042Z 32006KT 26/15 A2995 RMK A01 T02550154  RH  054%=      5-min Rain = 0
KTA1 131043Z 32006KT 26/15 A2995 RMK A01 T02550154  RH  054%=      5-min Rain = 0
KTA1 131044Z 32006KT 26/15 A2995 RMK A01 T02550154  RH  054%=      5-min Rain = 0
KTA1 131045Z 32006KT 26/15 A2995 RMK A01 T02550154  RH  054%=      5-min Rain = 0
KTA1 131046Z 32006KT 26/16 A2995 RMK A01 T02550155  RH  054%=      5-min Rain = 0
KTA1 131047Z 32006KT 25/16 A2995 RMK A01 T02540155  RH  054%=      5-min Rain = 0
KTA1 131048Z 32006KT 25/16 A2995 RMK A01 T02540155  RH  054%=      5-min Rain = 0
KTA1 131049Z 32006KT 25/15 A2995 RMK A01 T02540154  RH  054%=      5-min Rain = 0
KTA1 131050Z 32006KT 25/15 A2995 RMK A01 T02540154  RH  054%=      5-min Rain = 0
KTA1 131051Z 32006KT 25/15 A2995 RMK A01 T02540154  RH  054%=      5-min Rain = 0
KTA1 131052Z 33005KT 26/15 A2995 RMK A01 T02550154  RH  054%=      5-min Rain = 0
KTA1 131053Z 32005KT 26/15 A2995 RMK A01 T02550154  RH  054%=      5-min Rain = 0
KTA1 131054Z 32005KT 26/15 A2995 RMK A01 T02550154  RH  054%=      5-min Rain = 0
KTA1 131055Z 31004KT 26/15 A2995 RMK A01 T02550154  RH  054%=      5-min Rain = 0
KTA1 131056Z 31006KT 26/15 A2995 RMK A01 T02550154  RH  054%=      5-min Rain = 0
KTA1 131057Z 31006KT 26/16 A2995 RMK A01 T02550155  RH  054%=      5-min Rain = 0
KTA1 131058Z 32006KT 26/16 A2995 RMK A01 T02550155  RH  054%=      5-min Rain = 0
KTA1 131059Z 32005KT 25/16 A2995 RMK A01 T02540155  RH  054%=      5-min Rain = 0
KTA1 131100Z 32005KT 25/15 A2995 RMK A01 T02530154  RH  054%=      5-min Rain = 0
KTA1 131101Z 32005KT 25/15 A2995 RMK A01 T02530154  RH  054%=      5-min Rain = 0
KTA1 131102Z 32004KT 25/15 A2995 RMK A01 T02530154  RH  054%=      5-min Rain = 0
KTA1 131103Z 31004KT 25/15 A2995 RMK A01 T02520154  RH  055%=      5-min Rain = 0
KTA1 131104Z 31004KT 25/16 A2995 RMK A01 T02520155  RH  055%=      5-min Rain = 0
KTA1 131105Z 32004KT 25/15 A2995 RMK A01 T02510154  RH  055%=      5-min Rain = 0
KTA1 131106Z 31004KT 25/16 A2995 RMK A01 T02510155  RH  055%=      5-min Rain = 0
KTA1 131107Z 30004KT 25/16 A2995 RMK A01 T02510155  RH  055%=      5-min Rain = 0
KTA1 131108Z 31003KT 25/16 A2995 RMK A01 T02500155  RH  055%=      5-min Rain = 0
KTA1 131109Z 31003KT 25/15 A2995 RMK A01 T02500154  RH  055%=      5-min Rain = 0
KTA1 131110Z 31004KT 25/15 A2995 RMK A01 T02500154  RH  055%=      5-min Rain = 0
KTA1 131111Z 32005KT 25/15 A2995 RMK A01 T02490154  RH  055%=      5-min Rain = 0
KTA1 131112Z 32005KT 25/15 A2995 RMK A01 T02490154  RH  056%=      5-min Rain = 0
KTA1 131113Z 33005KT 25/15 A2995 RMK A01 T02490153  RH  055%=      5-min Rain = 0
KTA1 131114Z 33005KT 25/15 A2995 RMK A01 T02490153  RH  055%=      5-min Rain = 0
KTA1 131115Z 33004KT 25/15 A2995 RMK A01 T02490153  RH  055%=      5-min Rain = 0
KTA1 131116Z 33004KT 25/15 A2995 RMK A01 T02500153  RH  055%=      5-min Rain = 0
KTA1 131117Z 33004KT 25/15 A2996 RMK A01 T02500153  RH  055%=      5-min Rain = 0
KTA1 131118Z 33005KT 25/15 A2996 RMK A01 T02500152  RH  055%=      5-min Rain = 0
KTA1 131119Z 33006KT 25/15 A2996 RMK A01 T02500152  RH  055%=      5-min Rain = 0
KTA1 131120Z 34006KT 25/15 A2996 RMK A01 T02500152  RH  054%=      5-min Rain = 0
KTA1 131121Z 34006KT 25/15 A2996 RMK A01 T02510152  RH  054%=      5-min Rain = 0
KTA1 131122Z 34006KT 25/15 A2996 RMK A01 T02510152  RH  054%=      5-min Rain = 0
KTA1 131123Z 34006KT 25/15 A2996 RMK A01 T02520151  RH  053%=      5-min Rain = 0
KTA1 131124Z 34006KT 25/15 A2996 RMK A01 T02530151  RH  053%=      5-min Rain = 0
KTA1 131125Z 34007KT 25/15 A2996 RMK A01 T02540150  RH  053%=      5-min Rain = 0
KTA1 131126Z 33006KT 26/15 A2996 RMK A01 T02550150  RH  052%=      5-min Rain = 0
KTA1 131127Z 34006KT 26/15 A2996 RMK A01 T02550150  RH  052%=      5-min Rain = 0
KTA1 131128Z 35007KT 26/15 A2996 RMK A01 T02550150  RH  052%=      5-min Rain = 0
KTA1 131129Z 34007KT 25/15 A2996 RMK A01 T02540150  RH  052%=      5-min Rain = 0
KTA1 131130Z 35007KT 25/15 A2996 RMK A01 T02540149  RH  052%=      5-min Rain = 0
KTA1 131131Z 35007KT 25/15 A2996 RMK A01 T02530149  RH  053%=      5-min Rain = 0
KTA1 131132Z 34007KT 25/15 A2996 RMK A01 T02520149  RH  053%=      5-min Rain = 0
KTA1 131133Z 34007KT 25/15 A2996 RMK A01 T02510149  RH  053%=      5-min Rain = 0
KTA1 131134Z 35007KT 25/15 A2996 RMK A01 T02500149  RH  053%=      5-min Rain = 0
KTA1 131135Z 35006KT 25/15 A2996 RMK A01 T02490149  RH  054%=      5-min Rain = 0
KTA1 131136Z 35006KT 25/15 A2996 RMK A01 T02480149  RH  054%=      5-min Rain = 0
KTA1 131137Z 35005KT 25/15 A2996 RMK A01 T02480149  RH  054%=      5-min Rain = 0
KTA1 131138Z 34004KT 25/15 A2996 RMK A01 T02470149  RH  054%=      5-min Rain = 0
KTA1 131139Z 33004KT 25/15 A2997 RMK A01 T02470149  RH  054%=      5-min Rain = 0
KTA1 131140Z 33004KT 25/15 A2997 RMK A01 T02460149  RH  055%=      5-min Rain = 0
KTA1 131141Z 34004KT 25/15 A2997 RMK A01 T02460149  RH  055%=      5-min Rain = 0
KTA1 131142Z 33003KT 25/15 A2997 RMK A01 T02450149  RH  055%=      5-min Rain = 0
KTA1 131143Z 33004KT 25/15 A2997 RMK A01 T02450150  RH  055%=      5-min Rain = 0
KTA1 131144Z 34005KT 25/15 A2997 RMK A01 T02450150  RH  055%=      5-min Rain = 0
KTA1 131145Z 34006KT 25/15 A2997 RMK A01 T02450150  RH  056%=      5-min Rain = 0
KTA1 131146Z 34008KT 24/15 A2997 RMK A01 T02440150  RH  056%=      5-min Rain = 0
KTA1 131147Z 34006KT 25/15 A2997 RMK A01 T02450151  RH  056%=      5-min Rain = 0
KTA1 131148Z 35007KT 25/15 A2997 RMK A01 T02450151  RH  056%=      5-min Rain = 0
KTA1 131149Z 35007KT 25/15 A2997 RMK A01 T02450151  RH  056%=      5-min Rain = 0
KTA1 131150Z 35006KT 25/15 A2997 RMK A01 T02460152  RH  056%=      5-min Rain = 0
KTA1 131151Z 35006KT 25/15 A2997 RMK A01 T02460152  RH  056%=      5-min Rain = 0
KTA1 131152Z 35006KT 25/15 A2997 RMK A01 T02460152  RH  056%=      5-min Rain = 0
KTA1 131153Z 35005KT 25/15 A2997 RMK A01 T02450152  RH  056%=      5-min Rain = 0
KTA1 131154Z 35005KT 25/15 A2997 RMK A01 T02450152  RH  056%=      5-min Rain = 0
KTA1 131155Z 35006KT 24/15 A2997 RMK A01 T02440151  RH  056%=      5-min Rain = 0
KTA1 131156Z 35006KT 24/15 A2997 RMK A01 T02430151  RH  056%=      5-min Rain = 0
KTA1 131157Z 34005KT 24/15 A2997 RMK A01 T02420151  RH  057%=      5-min Rain = 0
KTA1 131158Z 34004KT 24/15 A2997 RMK A01 T02420152  RH  057%=      5-min Rain = 0
KTA1 131159Z 34004KT 24/15 A2997 RMK A01 T02420151  RH  057%=      5-min Rain = 0
KTA1 131200Z 34003KT 24/15 A2997 RMK A01 T02410152  RH  057%=      5-min Rain = 0
KTA1 131201Z 33003KT 24/15 A2997 RMK A01 T02410152  RH  057%=      5-min Rain = 0
KTA1 131202Z 32002KT 24/15 A2997 RMK A01 T02410152  RH  058%=      5-min Rain = 0
KTA1 131203Z 34002KT 24/15 A2997 RMK A01 T02400153  RH  058%=      5-min Rain = 0
KTA1 131204Z 34002KT 24/15 A2997 RMK A01 T02400153  RH  058%=      5-min Rain = 0
KTA1 131205Z 34003KT 24/15 A2997 RMK A01 T02400153  RH  058%=      5-min Rain = 0
KTA1 131206Z 34004KT 24/15 A2997 RMK A01 T02400153  RH  058%=      5-min Rain = 0
KTA1 131207Z 34004KT 24/15 A2997 RMK A01 T02390152  RH  058%=      5-min Rain = 0
KTA1 131208Z 33004KT 24/15 A2997 RMK A01 T02380152  RH  059%=      5-min Rain = 0
KTA1 131209Z 32003KT 24/15 A2997 RMK A01 T02380153  RH  059%=      5-min Rain = 0
KTA1 131210Z 34004KT 24/15 A2997 RMK A01 T02370153  RH  059%=      5-min Rain = 0
KTA1 131211Z 33004KT 24/15 A2997 RMK A01 T02360153  RH  060%=      5-min Rain = 0
KTA1 131212Z 33003KT 24/15 A2997 RMK A01 T02350153  RH  060%=      5-min Rain = 0
KTA1 131213Z 33003KT 24/15 A2997 RMK A01 T02350153  RH  060%=      5-min Rain = 0
KTA1 131214Z 34004KT 24/15 A2997 RMK A01 T02350153  RH  060%=      5-min Rain = 0
KTA1 131215Z 35003KT 24/15 A2997 RMK A01 T02350153  RH  060%=      5-min Rain = 0
KTA1 131216Z 34003KT 24/15 A2997 RMK A01 T02350153  RH  060%=      5-min Rain = 0
KTA1 131217Z 35003KT 24/15 A2997 RMK A01 T02350154  RH  060%=      5-min Rain = 0
KTA1 131218Z 01003KT 24/15 A2997 RMK A01 T02360154  RH  060%=      5-min Rain = 0
KTA1 131219Z 00003KT 24/15 A2997 RMK A01 T02360153  RH  060%=      5-min Rain = 0
KTA1 131220Z 36003KT 24/15 A2997 RMK A01 T02360153  RH  060%=      5-min Rain = 0
KTA1 131221Z 00003KT 24/15 A2997 RMK A01 T02360152  RH  059%=      5-min Rain = 0
KTA1 131222Z 35004KT 24/15 A2997 RMK A01 T02350152  RH  059%=      5-min Rain = 0
KTA1 131223Z 36004KT 24/15 A2997 RMK A01 T02350152  RH  059%=      5-min Rain = 0
KTA1 131224Z 36004KT 24/15 A2997 RMK A01 T02350151  RH  059%=      5-min Rain = 0
KTA1 131225Z 35003KT 24/15 A2997 RMK A01 T02350151  RH  060%=      5-min Rain = 0
KTA1 131226Z 35003KT 23/15 A2997 RMK A01 T02340151  RH  060%=      5-min Rain = 0
KTA1 131227Z 34003KT 24/15 A2997 RMK A01 T02350152  RH  060%=      5-min Rain = 0
KTA1 131228Z 34003KT 23/15 A2997 RMK A01 T02340152  RH  060%=      5-min Rain = 0
KTA1 131229Z 35003KT 24/15 A2997 RMK A01 T02350152  RH  060%=      5-min Rain = 0
KTA1 131230Z 35003KT 24/15 A2997 RMK A01 T02350152  RH  060%=      5-min Rain = 0
KTA1 131231Z 35002KT 24/15 A2997 RMK A01 T02350152  RH  060%=      5-min Rain = 0
KTA1 131232Z 35002KT 24/15 A2997 RMK A01 T02350153  RH  060%=      5-min Rain = 0
KTA1 131233Z 35002KT 24/15 A2997 RMK A01 T02360153  RH  060%=      5-min Rain = 0
KTA1 131234Z 35002KT 24/15 A2997 RMK A01 T02360153  RH  060%=      5-min Rain = 0
KTA1 131235Z 35002KT 24/15 A2997 RMK A01 T02370153  RH  059%=      5-min Rain = 0
KTA1 131236Z 35001KT 24/15 A2998 RMK A01 T02370153  RH  059%=      5-min Rain = 0
KTA1 131237Z 36003KT 24/15 A2998 RMK A01 T02380153  RH  059%=      5-min Rain = 0
KTA1 131238Z 36003KT 24/15 A2998 RMK A01 T02380153  RH  059%=      5-min Rain = 0
KTA1 131239Z 36003KT 24/15 A2998 RMK A01 T02370153  RH  059%=      5-min Rain = 0
KTA1 131240Z 00003KT 24/15 A2998 RMK A01 T02370153  RH  059%=      5-min Rain = 0
KTA1 131241Z 01002KT 24/15 A2998 RMK A01 T02370153  RH  059%=      5-min Rain = 0
KTA1 131242Z 01002KT 24/15 A2998 RMK A01 T02370153  RH  059%=      5-min Rain = 0
KTA1 131243Z 01002KT 24/15 A2998 RMK A01 T02380153  RH  059%=      5-min Rain = 0
KTA1 131244Z 00002KT 24/15 A2998 RMK A01 T02380154  RH  059%=      5-min Rain = 0
KTA1 131245Z 01002KT 24/15 A2998 RMK A01 T02380154  RH  059%=      5-min Rain = 0
KTA1 131246Z 02002KT 24/15 A2998 RMK A01 T02380154  RH  059%=      5-min Rain = 0
KTA1 131247Z 02002KT 24/16 A2998 RMK A01 T02380155  RH  059%=      5-min Rain = 0
KTA1 131248Z 01002KT 24/16 A2998 RMK A01 T02390155  RH  059%=      5-min Rain = 0
KTA1 131249Z 02002KT 24/16 A2998 RMK A01 T02390155  RH  059%=      5-min Rain = 0
KTA1 131250Z 01003KT 24/16 A2998 RMK A01 T02390156  RH  060%=      5-min Rain = 0
KTA1 131251Z 02002KT 24/16 A2998 RMK A01 T02390156  RH  059%=      5-min Rain = 0
KTA1 131252Z 03002KT 24/16 A2998 RMK A01 T02400155  RH  059%=      5-min Rain = 0
KTA1 131253Z 03001KT 24/16 A2998 RMK A01 T02400155  RH  059%=      5-min Rain = 0
KTA1 131254Z 05002KT 24/16 A2998 RMK A01 T02410155  RH  059%=      5-min Rain = 0
KTA1 131255Z 06002KT 24/15 A2998 RMK A01 T02420154  RH  058%=      5-min Rain = 0
KTA1 131256Z 07001KT 24/16 A2998 RMK A01 T02410155  RH  059%=      5-min Rain = 0
KTA1 131257Z 00000KT 24/16 A2998 RMK A01 T02420156  RH  059%=      5-min Rain = 0
KTA1 131258Z 00000KT 24/16 A2998 RMK A01 T02420157  RH  059%=      5-min Rain = 0
KTA1 131259Z 00000KT 24/16 A2999 RMK A01 T02430157  RH  059%=      5-min Rain = 0
KTA1 131300Z 00000KT 24/16 A2999 RMK A01 T02430157  RH  059%=      5-min Rain = 0
KTA1 131301Z 00000KT 24/16 A2999 RMK A01 T02430157  RH  059%=      5-min Rain = 0
KTA1 131302Z 05001KT 24/16 A2998 RMK A01 T02440157  RH  058%=      5-min Rain = 0
KTA1 131303Z 03002KT 25/16 A2998 RMK A01 T02450157  RH  058%=      5-min Rain = 0
KTA1 131304Z 02001KT 25/16 A2998 RMK A01 T02460158  RH  058%=      5-min Rain = 0
KTA1 131305Z 02001KT 25/16 A2999 RMK A01 T02470159  RH  058%=      5-min Rain = 0
KTA1 131306Z 35001KT 25/16 A2999 RMK A01 T02480158  RH  057%=      5-min Rain = 0
KTA1 131307Z 35002KT 25/16 A2999 RMK A01 T02480159  RH  058%=      5-min Rain = 0
KTA1 131308Z 35003KT 25/16 A2999 RMK A01 T02490159  RH  057%=      5-min Rain = 0
KTA1 131309Z 35004KT 25/16 A2999 RMK A01 T02490160  RH  057%=      5-min Rain = 0
KTA1 131310Z 34004KT 25/16 A2999 RMK A01 T02500161  RH  058%=      5-min Rain = 0
KTA1 131311Z 34003KT 25/16 A2999 RMK A01 T02500162  RH  058%=      5-min Rain = 0
KTA1 131312Z 34004KT 25/16 A2999 RMK A01 T02500163  RH  058%=      5-min Rain = 0
KTA1 131313Z 33003KT 25/17 A2999 RMK A01 T02510165  RH  059%=      5-min Rain = 0
KTA1 131314Z 35004KT 25/17 A2999 RMK A01 T02510166  RH  059%=      5-min Rain = 0
KTA1 131315Z 35003KT 25/17 A2999 RMK A01 T02520168  RH  060%=      5-min Rain = 0
KTA1 131316Z 36004KT 25/17 A2999 RMK A01 T02530169  RH  060%=      5-min Rain = 0
KTA1 131317Z 34005KT 25/17 A2999 RMK A01 T02530171  RH  060%=      5-min Rain = 0
KTA1 131318Z 35006KT 25/17 A2999 RMK A01 T02540171  RH  060%=      5-min Rain = 0
KTA1 131319Z 35005KT 26/17 A2999 RMK A01 T02550171  RH  060%=      5-min Rain = 0
KTA1 131320Z 36004KT 26/17 A2999 RMK A01 T02550172  RH  060%=      5-min Rain = 0
KTA1 131321Z 01003KT 26/17 A2999 RMK A01 T02560172  RH  060%=      5-min Rain = 0
KTA1 131322Z 36004KT 26/17 A2999 RMK A01 T02570173  RH  060%=      5-min Rain = 0
KTA1 131323Z 36004KT 26/17 A2999 RMK A01 T02570172  RH  059%=      5-min Rain = 0
KTA1 131324Z 36004KT 26/17 A2999 RMK A01 T02580172  RH  059%=      5-min Rain = 0
KTA1 131325Z 35004KT 26/17 A2999 RMK A01 T02580172  RH  059%=      5-min Rain = 0
KTA1 131326Z 35005KT 26/17 A2999 RMK A01 T02590172  RH  059%=      5-min Rain = 0
KTA1 131327Z 35005KT 26/17 A2999 RMK A01 T02590172  RH  059%=      5-min Rain = 0
KTA1 131328Z 35005KT 26/17 A2999 RMK A01 T02600172  RH  059%=      5-min Rain = 0
KTA1 131329Z 36005KT 26/17 A2999 RMK A01 T02610173  RH  058%=      5-min Rain = 0
KTA1 131330Z 35004KT 26/17 A2999 RMK A01 T02610172  RH  058%=      5-min Rain = 0
KTA1 131331Z 35005KT 26/17 A2999 RMK A01 T02620172  RH  058%=      5-min Rain = 0
KTA1 131332Z 36005KT 26/17 A2999 RMK A01 T02620172  RH  058%=      5-min Rain = 0
KTA1 131333Z 36003KT 26/17 A2999 RMK A01 T02620173  RH  058%=      5-min Rain = 0
KTA1 131334Z 35005KT 26/17 A2999 RMK A01 T02630174  RH  058%=      5-min Rain = 0
KTA1 131335Z 35005KT 26/17 A2999 RMK A01 T02640173  RH  057%=      5-min Rain = 0
KTA1 131336Z 00006KT 26/17 A2999 RMK A01 T02640173  RH  057%=      5-min Rain = 0
KTA1 131337Z 36006KT 26/17 A2999 RMK A01 T02630173  RH  057%=      5-min Rain = 0
KTA1 131338Z 36005KT 26/17 A2999 RMK A01 T02630172  RH  057%=      5-min Rain = 0
KTA1 131339Z 00004KT 26/17 A2999 RMK A01 T02640173  RH  057%=      5-min Rain = 0
KTA1 131340Z 01004KT 26/17 A2999 RMK A01 T02630174  RH  058%=      5-min Rain = 0
KTA1 131341Z 01005KT 26/17 A2999 RMK A01 T02640174  RH  058%=      5-min Rain = 0
KTA1 131342Z 36004KT 27/18 A2999 RMK A01 T02650175  RH  057%=      5-min Rain = 0
KTA1 131343Z 36005KT 27/17 A2999 RMK A01 T02660174  RH  057%=      5-min Rain = 0
KTA1 131344Z 01005KT 27/18 A2999 RMK A01 T02670175  RH  057%=      5-min Rain = 0
KTA1 131345Z 00006KT 27/18 A2999 RMK A01 T02680175  RH  057%=      5-min Rain = 0
KTA1 131346Z 00007KT 27/17 A30 RMK A01 T02690174  RH  056%=      5-min Rain = 0
KTA1 131347Z 36007KT 27/17 A30 RMK A01 T02680174  RH  056%=      5-min Rain = 0
KTA1 131348Z 35007KT 27/17 A30 RMK A01 T02680174  RH  056%=      5-min Rain = 0
KTA1 131349Z 35007KT 27/17 A30 RMK A01 T02680174  RH  056%=      5-min Rain = 0
KTA1 131350Z 00007KT 27/18 A30 RMK A01 T02690175  RH  057%=      5-min Rain = 0
KTA1 131351Z 00007KT 27/18 A30 RMK A01 T02690176  RH  057%=      5-min Rain = 0
KTA1 131352Z 00007KT 27/18 A30 RMK A01 T02690176  RH  057%=      5-min Rain = 0
KTA1 131353Z 35005KT 27/18 A30 RMK A01 T02690176  RH  057%=      5-min Rain = 0
KTA1 131354Z 00007KT 27/18 A30 RMK A01 T02700177  RH  057%=      5-min Rain = 0
KTA1 131355Z 01008KT 27/18 A30 RMK A01 T02700177  RH  057%=      5-min Rain = 0
KTA1 131356Z 01007KT 27/18 A30 RMK A01 T02700177  RH  057%=      5-min Rain = 0
KTA1 131357Z 01008KT 27/18 A30 RMK A01 T02700177  RH  057%=      5-min Rain = 0
KTA1 131358Z 01008KT 27/18 A30 RMK A01 T02700177  RH  057%=      5-min Rain = 0
KTA1 131359Z 01007KT 27/18 A30 RMK A01 T02690177  RH  057%=      5-min Rain = 0
KTA1 131400Z 02005KT 27/18 A30 RMK A01 T02690178  RH  057%=      5-min Rain = 0
KTA1 131401Z 01008KT 27/18 A30 RMK A01 T02710179  RH  057%=      5-min Rain = 0
KTA1 131402Z 00007KT 27/18 A30 RMK A01 T02710178  RH  057%=      5-min Rain = 0
KTA1 131403Z 00005KT 27/18 A30 RMK A01 T02710179  RH  057%=      5-min Rain = 0
KTA1 131404Z 36007KT 27/18 A30 RMK A01 T02710178  RH  057%=      5-min Rain = 0
KTA1 131405Z 00006KT 27/18 A30 RMK A01 T02720178  RH  056%=      5-min Rain = 0
KTA1 131406Z 36005KT 27/18 A30 RMK A01 T02730179  RH  057%=      5-min Rain = 0
KTA1 131407Z 00007KT 27/18 A30 RMK A01 T02730179  RH  056%=      5-min Rain = 0
KTA1 131408Z 01006KT 27/18 A30 RMK A01 T02730181  RH  057%=      5-min Rain = 0
KTA1 131409Z 00004KT 27/18 A30 RMK A01 T02730180  RH  057%=      5-min Rain = 0
KTA1 131410Z 02006KT 27/18 A30 RMK A01 T02740181  RH  057%=      5-min Rain = 0
KTA1 131411Z 02006KT 27/18 A30 RMK A01 T02740181  RH  057%=      5-min Rain = 0
KTA1 131412Z 01006KT 27/18 A30 RMK A01 T02730182  RH  057%=      5-min Rain = 0
KTA1 131413Z 02006KT 27/18 A30 RMK A01 T02740183  RH  058%=      5-min Rain = 0
KTA1 131414Z 03005KT 27/18 A30 RMK A01 T02730183  RH  058%=      5-min Rain = 0
KTA1 131415Z 03008KT 27/18 A30 RMK A01 T02710183  RH  058%=      5-min Rain = 0
KTA1 131416Z 02007KT 27/18 A30 RMK A01 T02710183  RH  059%=      5-min Rain = 0
KTA1 131417Z 01007KT 27/18 A30 RMK A01 T02710182  RH  058%=      5-min Rain = 0
KTA1 131418Z 01006KT 27/18 A30 RMK A01 T02700181  RH  058%=      5-min Rain = 0
KTA1 131419Z 02007KT 27/18 A30 RMK A01 T02700182  RH  059%=      5-min Rain = 0
KTA1 131420Z 01007KT 27/18 A30 RMK A01 T02710183  RH  059%=      5-min Rain = 0
KTA1 131421Z 02006KT 27/18 A30 RMK A01 T02710183  RH  059%=      5-min Rain = 0
KTA1 131422Z 02007KT 27/18 A30 RMK A01 T02720184  RH  059%=      5-min Rain = 0
KTA1 131423Z 01006KT 27/18 A30 RMK A01 T02720183  RH  058%=      5-min Rain = 0
KTA1 131424Z 02006KT 27/18 A30 RMK A01 T02730183  RH  058%=      5-min Rain = 0
KTA1 131425Z 03006KT 27/18 A30 RMK A01 T02720183  RH  058%=      5-min Rain = 0
KTA1 131426Z 03006KT 27/18 A30 RMK A01 T02710184  RH  059%=      5-min Rain = 0
KTA1 131427Z 02007KT 27/18 A30 RMK A01 T02710184  RH  059%=      5-min Rain = 0
KTA1 131428Z 01007KT 27/18 A30 RMK A01 T02710184  RH  059%=      5-min Rain = 0
KTA1 131429Z 00007KT 27/18 A30 RMK A01 T02720184  RH  059%=      5-min Rain = 0
KTA1 131430Z 02007KT 27/18 A30 RMK A01 T02730184  RH  058%=      5-min Rain = 0
KTA1 131431Z 01007KT 27/18 A30 RMK A01 T02730183  RH  058%=      5-min Rain = 0
KTA1 131432Z 01006KT 27/18 A30 RMK A01 T02730184  RH  058%=      5-min Rain = 0
KTA1 131433Z 01006KT 27/18 A30 RMK A01 T02720184  RH  058%=      5-min Rain = 0
KTA1 131434Z 35006KT 27/18 A30 RMK A01 T02730184  RH  058%=      5-min Rain = 0
KTA1 131435Z 01007KT 27/18 A30 RMK A01 T02740184  RH  058%=      5-min Rain = 0
KTA1 131436Z 01007KT 28/18 A30 RMK A01 T02750184  RH  058%=      5-min Rain = 0
KTA1 131437Z 36008KT 28/18 A3001 RMK A01 T02750184  RH  058%=      5-min Rain = 0
KTA1 131438Z 36007KT 27/18 A3001 RMK A01 T02740183  RH  058%=      5-min Rain = 0
KTA1 131439Z 35007KT 27/18 A3001 RMK A01 T02740183  RH  058%=      5-min Rain = 0
KTA1 131440Z 00006KT 28/18 A3001 RMK A01 T02750184  RH  057%=      5-min Rain = 0
KTA1 131441Z 36007KT 28/18 A3001 RMK A01 T02750184  RH  058%=      5-min Rain = 0
KTA1 131442Z 35006KT 28/18 A3001 RMK A01 T02750184  RH  058%=      5-min Rain = 0
KTA1 131443Z 36007KT 28/18 A3001 RMK A01 T02750184  RH  058%=      5-min Rain = 0
KTA1 131444Z 01007KT 28/18 A3001 RMK A01 T02760184  RH  057%=      5-min Rain = 0
KTA1 131445Z 00005KT 28/18 A3001 RMK A01 T02750184  RH  057%=      5-min Rain = 0
KTA1 131446Z 00007KT 28/18 A3001 RMK A01 T02750184  RH  058%=      5-min Rain = 0
KTA1 131447Z 36008KT 28/18 A3001 RMK A01 T02760184  RH  057%=      5-min Rain = 0
KTA1 131448Z 00008KT 28/18 A3001 RMK A01 T02760184  RH  057%=      5-min Rain = 0
KTA1 131449Z 00007KT 28/18 A3001 RMK A01 T02770184  RH  057%=      5-min Rain = 0
KTA1 131450Z 36008KT 28/19 A3001 RMK A01 T02770185  RH  057%=      5-min Rain = 0
KTA1 131451Z 36008KT 28/18 A3001 RMK A01 T02780184  RH  057%=      5-min Rain = 0
KTA1 131452Z 36007KT 28/18 A3001 RMK A01 T02780184  RH  057%=      5-min Rain = 0
KTA1 131453Z 00007KT 28/19 A3001 RMK A01 T02790185  RH  057%=      5-min Rain = 0
KTA1 131454Z 00007KT 28/19 A3001 RMK A01 T02800185  RH  056%=      5-min Rain = 0
KTA1 131455Z 36005KT 28/19 A3001 RMK A01 T02810186  RH  056%=      5-min Rain = 0
KTA1 131456Z 00006KT 28/19 A3001 RMK A01 T02820186  RH  056%=      5-min Rain = 0
KTA1 131457Z 00007KT 28/19 A3001 RMK A01 T02830187  RH  056%=      5-min Rain = 0
KTA1 131458Z 00009KT 28/19 A3001 RMK A01 T02830186  RH  055%=      5-min Rain = 0
KTA1 131459Z 35009KT 28/19 A3001 RMK A01 T02830186  RH  056%=      5-min Rain = 0
KTA1 131500Z 01008KT 28/19 A3001 RMK A01 T02830185  RH  055%=      5-min Rain = 0
KTA1 131501Z 01007KT 28/19 A3001 RMK A01 T02830185  RH  055%=      5-min Rain = 0
KTA1 131502Z 02008KT 28/19 A3001 RMK A01 T02830186  RH  056%=      5-min Rain = 0
KTA1 131503Z 01008KT 28/19 A3001 RMK A01 T02830186  RH  056%=      5-min Rain = 0
KTA1 131504Z 36008KT 28/19 A3002 RMK A01 T02830185  RH  055%=      5-min Rain = 0
KTA1 131505Z 36008KT 28/19 A3002 RMK A01 T02830185  RH  055%=      5-min Rain = 0
KTA1 131506Z 36006KT 28/19 A3002 RMK A01 T02840185  RH  055%=      5-min Rain = 0
KTA1 131507Z 35008KT 28/19 A3002 RMK A01 T02840186  RH  055%=      5-min Rain = 0
KTA1 131508Z 34008KT 29/19 A3002 RMK A01 T02860186  RH  054%=      5-min Rain = 0
KTA1 131509Z 02007KT 29/19 A3002 RMK A01 T02870186  RH  055%=      5-min Rain = 0
KTA1 131510Z 03006KT 29/19 A3002 RMK A01 T02860188  RH  055%=      5-min Rain = 0
KTA1 131511Z 36007KT 29/19 A3002 RMK A01 T02850188  RH  056%=      5-min Rain = 0
KTA1 131512Z 01005KT 29/19 A3002 RMK A01 T02850187  RH  055%=      5-min Rain = 0
KTA1 131513Z 01008KT 29/19 A3002 RMK A01 T02870189  RH  055%=      5-min Rain = 0
KTA1 131514Z 01007KT 29/19 A3002 RMK A01 T02880187  RH  055%=      5-min Rain = 0
KTA1 131515Z 00010KT 29/19 A3002 RMK A01 T02870188  RH  055%=      5-min Rain = 0
KTA1 131516Z 36007KT 29/19 A3002 RMK A01 T02870185  RH  054%=      5-min Rain = 0
KTA1 131517Z 00006KT 29/19 A3002 RMK A01 T02860185  RH  054%=      5-min Rain = 0
KTA1 131518Z 01007KT 29/19 A3002 RMK A01 T02860186  RH  055%=      5-min Rain = 0
KTA1 131519Z 00008KT 29/19 A3002 RMK A01 T02860185  RH  054%=      5-min Rain = 0
KTA1 131520Z 36006KT 29/19 A3002 RMK A01 T02860185  RH  054%=      5-min Rain = 0
KTA1 131521Z 36009KT 29/19 A3002 RMK A01 T02870186  RH  054%=      5-min Rain = 0
KTA1 131522Z 36007KT 29/19 A3002 RMK A01 T02890186  RH  054%=      5-min Rain = 0
KTA1 131523Z 00006KT 29/18 A3002 RMK A01 T02900184  RH  053%=      5-min Rain = 0
KTA1 131524Z 01005KT 29/18 A3002 RMK A01 T02910184  RH  053%=      5-min Rain = 0
KTA1 131525Z 01006KT 29/18 A3002 RMK A01 T02910184  RH  052%=      5-min Rain = 0
KTA1 131526Z 01008KT 29/19 A3002 RMK A01 T02900185  RH  053%=      5-min Rain = 0
KTA1 131527Z 35006KT 29/18 A3002 RMK A01 T02900184  RH  053%=      5-min Rain = 0
KTA1 131528Z 01007KT 29/18 A3002 RMK A01 T02920184  RH  052%=      5-min Rain = 0
KTA1 131529Z 02005KT 29/18 A3002 RMK A01 T02920181  RH  051%=      5-min Rain = 0
KTA1 131530Z 02004KT 29/18 A3002 RMK A01 T02910181  RH  052%=      5-min Rain = 0
KTA1 131531Z 36007KT 29/18 A3002 RMK A01 T02900183  RH  052%=      5-min Rain = 0
KTA1 131532Z 36007KT 29/19 A3002 RMK A01 T02930185  RH  052%=      5-min Rain = 0
KTA1 131533Z 34005KT 30/18 A3002 RMK A01 T02950183  RH  051%=      5-min Rain = 0
KTA1 131534Z 36007KT 30/18 A3002 RMK A01 T02960184  RH  051%=      5-min Rain = 0
KTA1 131535Z 00007KT 30/18 A3002 RMK A01 T02970184  RH  051%=      5-min Rain = 0
KTA1 131536Z 00006KT 30/19 A3002 RMK A01 T02970185  RH  051%=      5-min Rain = 0
KTA1 131537Z 35007KT 30/19 A3002 RMK A01 T02980185  RH  051%=      5-min Rain = 0
KTA1 131538Z 35010KT 30/19 A3002 RMK A01 T03000185  RH  050%=      5-min Rain = 0
KTA1 131539Z 36008KT 30/18 A3002 RMK A01 T03000183  RH  050%=      5-min Rain = 0
KTA1 131540Z 35008KT 30/18 A3002 RMK A01 T03000183  RH  050%=      5-min Rain = 0
KTA1 131541Z 35007KT 30/18 A3002 RMK A01 T03000182  RH  049%=      5-min Rain = 0
KTA1 131542Z 35009KT 30/18 A3002 RMK A01 T02990182  RH  049%=      5-min Rain = 0
KTA1 131543Z 35009KT 30/18 A3002 RMK A01 T03000183  RH  049%=      5-min Rain = 0
KTA1 131544Z 01010KT 30/18 A3002 RMK A01 T03010184  RH  050%=      5-min Rain = 0
KTA1 131545Z 34009KT 30/19 A3002 RMK A01 T03010185  RH  050%=      5-min Rain = 0
KTA1 131546Z 34010KT 30/18 A3002 RMK A01 T03000183  RH  049%=      5-min Rain = 0
KTA1 131547Z 35008KT 30/18 A3002 RMK A01 T03010183  RH  049%=      5-min Rain = 0
KTA1 131548Z 35007KT 30/18 A3002 RMK A01 T03020183  RH  049%=      5-min Rain = 0
KTA1 131549Z 35007KT 30/18 A3002 RMK A01 T03040181  RH  048%=      5-min Rain = 0
KTA1 131550Z 35008KT 30/18 A3002 RMK A01 T03030181  RH  048%=      5-min Rain = 0
KTA1 131551Z 36007KT 30/18 A3002 RMK A01 T03010183  RH  049%=      5-min Rain = 0
KTA1 131552Z 01009KT 30/18 A3002 RMK A01 T03010184  RH  049%=      5-min Rain = 0
KTA1 131553Z 36008KT 30/18 A3002 RMK A01 T03030184  RH  049%=      5-min Rain = 0
KTA1 131554Z 35008KT 31/18 A3002 RMK A01 T03050184  RH  048%=      5-min Rain = 0
KTA1 131555Z 01007KT 31/19 A3002 RMK A01 T03070185  RH  048%=      5-min Rain = 0
KTA1 131556Z 35008KT 31/18 A3002 RMK A01 T03070184  RH  048%=      5-min Rain = 0
KTA1 131557Z 34008KT 31/18 A3002 RMK A01 T03050182  RH  048%=      5-min Rain = 0
KTA1 131558Z 35008KT 30/18 A3002 RMK A01 T03040182  RH  048%=      5-min Rain = 0
KTA1 131559Z 36006G11KT 30/18 A3002 RMK A01 T03040182  RH  048%=      5-min Rain = 0
KTA1 131600Z 00010KT 31/19 A3002 RMK A01 T03060185  RH  049%=      5-min Rain = 0
KTA1 131601Z 00008KT 31/18 A3002 RMK A01 T03070184  RH  048%=      5-min Rain = 0
KTA1 131602Z 35009KT 31/18 A3003 RMK A01 T03090183  RH  047%=      5-min Rain = 0
KTA1 131603Z 36010KT 31/18 A3003 RMK A01 T03110182  RH  046%=      5-min Rain = 0
KTA1 131604Z 01008KT 31/18 A3003 RMK A01 T03120183  RH  046%=      5-min Rain = 0
KTA1 131605Z 01007KT 31/18 A3003 RMK A01 T03130181  RH  046%=      5-min Rain = 0
KTA1 131606Z 01008KT 31/18 A3003 RMK A01 T03110182  RH  046%=      5-min Rain = 0
KTA1 131607Z 35007KT 31/18 A3003 RMK A01 T03090182  RH  047%=      5-min Rain = 0
KTA1 131608Z 01009KT 31/18 A3003 RMK A01 T03090183  RH  047%=      5-min Rain = 0
KTA1 131609Z 02007KT 31/19 A3003 RMK A01 T03090186  RH  048%=      5-min Rain = 0
KTA1 131610Z 01009KT 31/19 A3003 RMK A01 T03110186  RH  047%=      5-min Rain = 0
KTA1 131611Z 02007KT 31/19 A3003 RMK A01 T03120185  RH  047%=      5-min Rain = 0
KTA1 131612Z 01009KT 31/18 A3003 RMK A01 T03120184  RH  046%=      5-min Rain = 0
KTA1 131613Z 01008KT 31/18 A3003 RMK A01 T03120183  RH  046%=      5-min Rain = 0
KTA1 131614Z 01008KT 31/18 A3003 RMK A01 T03110183  RH  047%=      5-min Rain = 0
KTA1 131615Z 35008KT 31/18 A3003 RMK A01 T03120182  RH  046%=      5-min Rain = 0
KTA1 131616Z 34006KT 31/18 A3003 RMK A01 T03130180  RH  045%=      5-min Rain = 0
KTA1 131617Z 34006KT 31/18 A3003 RMK A01 T03140182  RH  045%=      5-min Rain = 0
KTA1 131618Z 02006KT 32/18 A3003 RMK A01 T03150183  RH  045%=      5-min Rain = 0
KTA1 131619Z 36008KT 32/18 A3003 RMK A01 T03150183  RH  045%=      5-min Rain = 0
KTA1 131620Z 01009KT 32/18 A3003 RMK A01 T03170182  RH  045%=      5-min Rain = 0
KTA1 131621Z 03009KT 32/18 A3003 RMK A01 T03150181  RH  045%=      5-min Rain = 0
KTA1 131622Z 01008KT 31/18 A3003 RMK A01 T03130181  RH  045%=      5-min Rain = 0
KTA1 131623Z 01006KT 31/18 A3003 RMK A01 T03130179  RH  045%=      5-min Rain = 0
KTA1 131624Z 02008KT 31/18 A3003 RMK A01 T03140179  RH  045%=      5-min Rain = 0
KTA1 131625Z 04005KT 31/18 A3003 RMK A01 T03140179  RH  045%=      5-min Rain = 0
KTA1 131626Z 01004KT 31/18 A3003 RMK A01 T03140178  RH  044%=      5-min Rain = 0
KTA1 131627Z 36006KT 31/18 A3003 RMK A01 T03140179  RH  045%=      5-min Rain = 0
KTA1 131628Z 03008KT 32/18 A3003 RMK A01 T03150180  RH  045%=      5-min Rain = 0
KTA1 131629Z 03008KT 32/18 A3003 RMK A01 T03160181  RH  045%=      5-min Rain = 0
KTA1 131630Z 03007KT 32/18 A3003 RMK A01 T03160181  RH  045%=      5-min Rain = 0
KTA1 131631Z 01007KT 32/18 A3003 RMK A01 T03170180  RH  044%=      5-min Rain = 0
KTA1 131632Z 00008KT 32/18 A3003 RMK A01 T03180179  RH  044%=      5-min Rain = 0
KTA1 131633Z 36006KT 32/18 A3003 RMK A01 T03180178  RH  043%=      5-min Rain = 0
KTA1 131634Z 00004KT 32/18 A3003 RMK A01 T03160177  RH  043%=      5-min Rain = 0
KTA1 131635Z 04007KT 32/18 A3003 RMK A01 T03160177  RH  043%=      5-min Rain = 0
KTA1 131636Z 04006KT 32/18 A3003 RMK A01 T03160176  RH  043%=      5-min Rain = 0
KTA1 131637Z 05004KT 32/18 A3003 RMK A01 T03160175  RH  043%=      5-min Rain = 0
KTA1 131638Z 01008KT 32/18 A3003 RMK A01 T03170178  RH  044%=      5-min Rain = 0
KTA1 131639Z 00007KT 32/18 A3003 RMK A01 T03180179  RH  044%=      5-min Rain = 0
KTA1 131640Z 35008KT 32/18 A3003 RMK A01 T03170178  RH  044%=      5-min Rain = 0
KTA1 131641Z 35005KT 32/18 A3003 RMK A01 T03170177  RH  043%=      5-min Rain = 0
KTA1 131642Z 00006KT 32/18 A3003 RMK A01 T03180178  RH  043%=      5-min Rain = 0
KTA1 131643Z 00007KT 32/18 A3003 RMK A01 T03200176  RH  042%=      5-min Rain = 0
KTA1 131644Z 01006KT 32/18 A3003 RMK A01 T03200175  RH  042%=      5-min Rain = 0
KTA1 131645Z 02004KT 32/17 A3003 RMK A01 T03200173  RH  042%=      5-min Rain = 0
KTA1 131646Z 02004KT 32/18 A3003 RMK A01 T03190175  RH  042%=      5-min Rain = 0
KTA1 131647Z 01005KT 32/18 A3003 RMK A01 T03190177  RH  043%=      5-min Rain = 0
KTA1 131648Z 03007KT 32/18 A3003 RMK A01 T03220179  RH  043%=      5-min Rain = 0
KTA1 131649Z 03007KT 33/18 A3003 RMK A01 T03250178  RH  042%=      5-min Rain = 0
KTA1 131650Z 02006KT 33/18 A3003 RMK A01 T03250178  RH  042%=      5-min Rain = 0
KTA1 131651Z 04005KT 33/18 A3003 RMK A01 T03250176  RH  041%=      5-min Rain = 0
KTA1 131652Z 05005KT 32/18 A3003 RMK A01 T03240175  RH  041%=      5-min Rain = 0
KTA1 131653Z 02005KT 32/18 A3003 RMK A01 T03230176  RH  041%=      5-min Rain = 0
KTA1 131654Z 01007KT 32/18 A3003 RMK A01 T03230177  RH  042%=      5-min Rain = 0
KTA1 131655Z 02008KT 32/18 A3003 RMK A01 T03240177  RH  042%=      5-min Rain = 0
KTA1 131656Z 03007KT 33/18 A3003 RMK A01 T03250177  RH  041%=      5-min Rain = 0
KTA1 131657Z 01008KT 33/18 A3003 RMK A01 T03250177  RH  041%=      5-min Rain = 0
KTA1 131658Z 03005KT 33/18 A3003 RMK A01 T03250178  RH  042%=      5-min Rain = 0
KTA1 131659Z 03008KT 33/18 A3003 RMK A01 T03270177  RH  041%=      5-min Rain = 0
KTA1 131700Z 03009KT 33/18 A3003 RMK A01 T03270178  RH  041%=      5-min Rain = 0
KTA1 131701Z 01007KT 33/18 A3003 RMK A01 T03270178  RH  041%=      5-min Rain = 0
KTA1 131702Z 01005KT 33/18 A3003 RMK A01 T03280178  RH  041%=      5-min Rain = 0
KTA1 131703Z 03006KT 33/18 A3003 RMK A01 T03290178  RH  041%=      5-min Rain = 0
KTA1 131704Z 05007KT 33/18 A3003 RMK A01 T03290177  RH  040%=      5-min Rain = 0
KTA1 131705Z 04008KT 33/18 A3003 RMK A01 T03300178  RH  041%=      5-min Rain = 0
KTA1 131706Z 04009KT 33/18 A3003 RMK A01 T03300179  RH  041%=      5-min Rain = 0
KTA1 131707Z 04008KT 33/18 A3003 RMK A01 T03280177  RH  041%=      5-min Rain = 0
KTA1 131708Z 03006KT 33/18 A3003 RMK A01 T03260175  RH  041%=      5-min Rain = 0
KTA1 131709Z 02007KT 33/18 A3003 RMK A01 T03250176  RH  041%=      5-min Rain = 0
KTA1 131710Z 02007KT 33/17 A3003 RMK A01 T03260174  RH  040%=      5-min Rain = 0
KTA1 131711Z 05006G11KT 33/18 A3003 RMK A01 T03260175  RH  041%=      5-min Rain = 0
KTA1 131712Z 05005KT 33/17 A3003 RMK A01 T03250173  RH  040%=      5-min Rain = 0
KTA1 131713Z 04007KT 33/18 A3003 RMK A01 T03260176  RH  041%=      5-min Rain = 0
KTA1 131714Z 04007KT 33/18 A3003 RMK A01 T03290176  RH  040%=      5-min Rain = 0
KTA1 131715Z 04007KT 33/18 A3003 RMK A01 T03290176  RH  040%=      5-min Rain = 0
KTA1 131716Z 06007KT 33/18 A3003 RMK A01 T03300176  RH  040%=      5-min Rain = 0
KTA1 131717Z 03007KT 33/18 A3003 RMK A01 T03310176  RH  040%=      5-min Rain = 0
KTA1 131718Z 04004KT 33/18 A3003 RMK A01 T03310176  RH  040%=      5-min Rain = 0
KTA1 131719Z 03003KT 33/18 A3003 RMK A01 T03300176  RH  040%=      5-min Rain = 0
KTA1 131720Z 03005KT 33/18 A3003 RMK A01 T03320179  RH  040%=      5-min Rain = 0
KTA1 131721Z 03005KT 34/18 A3003 RMK A01 T03350179  RH  040%=      5-min Rain = 0
KTA1 131722Z 03009KT 34/18 A3003 RMK A01 T03360180  RH  039%=      5-min Rain = 0
KTA1 131723Z 02009KT 34/18 A3003 RMK A01 T03370179  RH  039%=      5-min Rain = 0
KTA1 131724Z 01007KT 33/18 A3003 RMK A01 T03340177  RH  039%=      5-min Rain = 0
KTA1 131725Z 01005KT 33/18 A3003 RMK A01 T03310178  RH  040%=      5-min Rain = 0
KTA1 131726Z 03005G12KT 33/18 A3003 RMK A01 T03310178  RH  040%=      5-min Rain = 0
KTA1 131727Z 03008KT 33/18 A3003 RMK A01 T03330180  RH  040%=      5-min Rain = 0
KTA1 131728Z 04009KT 33/18 A3003 RMK A01 T03340180  RH  040%=      5-min Rain = 0
KTA1 131729Z 04008KT 33/18 A3003 RMK A01 T03340179  RH  040%=      5-min Rain = 0
KTA1 131730Z 02006KT 33/18 A3003 RMK A01 T03340180  RH  040%=      5-min Rain = 0
KTA1 131731Z 01006KT 33/18 A3003 RMK A01 T03340180  RH  040%=      5-min Rain = 0
KTA1 131732Z 01004KT 33/18 A3003 RMK A01 T03340179  RH  040%=      5-min Rain = 0
KTA1 131733Z 02005KT 33/18 A3003 RMK A01 T03340180  RH  040%=      5-min Rain = 0
KTA1 131734Z 02008KT 34/18 A3003 RMK A01 T03360180  RH  039%=      5-min Rain = 0
KTA1 131735Z 02007KT 34/18 A3003 RMK A01 T03370178  RH  039%=      5-min Rain = 0
KTA1 131736Z 05008KT 33/18 A3003 RMK A01 T03340179  RH  040%=      5-min Rain = 0
KTA1 131737Z 05008KT 34/18 A3003 RMK A01 T03350178  RH  039%=      5-min Rain = 0
KTA1 131738Z 07008KT 34/18 A3003 RMK A01 T03350178  RH  039%=      5-min Rain = 0
KTA1 131739Z 08004KT 34/18 A3003 RMK A01 T03350177  RH  039%=      5-min Rain = 0
KTA1 131740Z 00010KT 34/18 A3002 RMK A01 T03350179  RH  039%=      5-min Rain = 0
KTA1 131741Z 00009KT 34/18 A3003 RMK A01 T03370178  RH  039%=      5-min Rain = 0
KTA1 131742Z 01008KT 34/18 A3002 RMK A01 T03370178  RH  039%=      5-min Rain = 0
KTA1 131743Z 02006KT 34/18 A3002 RMK A01 T03370178  RH  039%=      5-min Rain = 0
KTA1 131744Z 34006KT 34/18 A3002 RMK A01 T03390179  RH  039%=      5-min Rain = 0
KTA1 131745Z 34007G14KT 34/18 A3002 RMK A01 T03400178  RH  038%=      5-min Rain = 0
KTA1 131746Z 00009KT 34/18 A3002 RMK A01 T03400179  RH  038%=      5-min Rain = 0
KTA1 131747Z 35009KT 34/18 A3002 RMK A01 T03410180  RH  038%=      5-min Rain = 0
KTA1 131748Z 35008KT 34/18 A3002 RMK A01 T03430178  RH  038%=      5-min Rain = 0
KTA1 131749Z 03007KT 34/18 A3002 RMK A01 T03420178  RH  038%=      5-min Rain = 0
KTA1 131750Z 01005KT 34/18 A3002 RMK A01 T03410177  RH  038%=      5-min Rain = 0
KTA1 131751Z 02007KT 34/18 A3002 RMK A01 T03410177  RH  038%=      5-min Rain = 0
KTA1 131752Z 04007KT 34/18 A3002 RMK A01 T03390177  RH  038%=      5-min Rain = 0
KTA1 131753Z 05006KT 34/18 A3002 RMK A01 T03380177  RH  038%=      5-min Rain = 0
KTA1 131754Z 05008KT 34/18 A3002 RMK A01 T03370178  RH  039%=      5-min Rain = 0
KTA1 131755Z 06007KT 34/18 A3002 RMK A01 T03380178  RH  039%=      5-min Rain = 0
KTA1 131756Z 04006KT 34/18 A3002 RMK A01 T03390178  RH  038%=      5-min Rain = 0
KTA1 131757Z 02007KT 34/18 A3002 RMK A01 T03390180  RH  039%=      5-min Rain = 0
KTA1 131758Z 01009KT 34/18 A3002 RMK A01 T03420180  RH  038%=      5-min Rain = 0
KTA1 131759Z 01008KT 35/18 A3002 RMK A01 T03450179  RH  037%=      5-min Rain = 0
KTA1 131800Z 01007KT 35/18 A3002 RMK A01 T03450178  RH  037%=      5-min Rain = 0
KTA1 131801Z 03010KT 34/18 A3002 RMK A01 T03430178  RH  038%=      5-min Rain = 0
KTA1 131802Z 04011KT 34/18 A3002 RMK A01 T03430179  RH  038%=      5-min Rain = 0
KTA1 131803Z 04008KT 35/18 A3002 RMK A01 T03450179  RH  037%=      5-min Rain = 0
KTA1 131804Z 04008KT 35/18 A3002 RMK A01 T03460180  RH  037%=      5-min Rain = 0
KTA1 131805Z 05007KT 35/18 A3002 RMK A01 T03460178  RH  037%=      5-min Rain = 0
KTA1 131806Z 03010KT 34/18 A3002 RMK A01 T03430180  RH  038%=      5-min Rain = 0
KTA1 131807Z 00011KT 35/18 A3002 RMK A01 T03450178  RH  037%=      5-min Rain = 0
KTA1 131808Z 36008KT 35/18 A3002 RMK A01 T03450178  RH  037%=      5-min Rain = 0
KTA1 131809Z 02009KT 35/18 A3002 RMK A01 T03460179  RH  037%=      5-min Rain = 0
KTA1 131810Z 04008KT 35/18 A3002 RMK A01 T03460177  RH  037%=      5-min Rain = 0
KTA1 131811Z 04010KT 35/18 A3002 RMK A01 T03460180  RH  037%=      5-min Rain = 0
KTA1 131812Z 03007KT 35/18 A3002 RMK A01 T03500179  RH  037%=      5-min Rain = 0
KTA1 131813Z 02010KT 35/18 A3002 RMK A01 T03500179  RH  036%=      5-min Rain = 0
KTA1 131814Z 01010KT 35/18 A3002 RMK A01 T03500180  RH  037%=      5-min Rain = 0
KTA1 131815Z 01008KT 35/18 A3002 RMK A01 T03540178  RH  036%=      5-min Rain = 0
KTA1 131816Z 35008KT 35/18 A3002 RMK A01 T03540177  RH  035%=      5-min Rain = 0
KTA1 131817Z 00008KT 36/18 A3002 RMK A01 T03550175  RH  035%=      5-min Rain = 0
KTA1 131818Z 01011KT 36/18 A3002 RMK A01 T03550178  RH  035%=      5-min Rain = 0
KTA1 131819Z 03012KT 35/18 A3002 RMK A01 T03530179  RH  036%=      5-min Rain = 0
KTA1 131820Z 03009KT 35/18 A3002 RMK A01 T03500178  RH  036%=      5-min Rain = 0
KTA1 131821Z 04009KT 35/18 A3002 RMK A01 T03470179  RH  037%=      5-min Rain = 0
KTA1 131822Z 05009KT 35/18 A3002 RMK A01 T03490178  RH  036%=      5-min Rain = 0
KTA1 131823Z 03007KT 35/18 A3002 RMK A01 T03490179  RH  037%=      5-min Rain = 0
KTA1 131824Z 02008KT 35/18 A3002 RMK A01 T03520180  RH  036%=      5-min Rain = 0
KTA1 131825Z 34009KT 35/18 A3002 RMK A01 T03520177  RH  036%=      5-min Rain = 0
KTA1 131826Z 34007KT 35/17 A3002 RMK A01 T03540173  RH  034%=      5-min Rain = 0
KTA1 131827Z 34009KT 36/17 A3002 RMK A01 T03550174  RH  034%=      5-min Rain = 0
KTA1 131828Z 35007KT 35/17 A3002 RMK A01 T03530173  RH  035%=      5-min Rain = 0
KTA1 131829Z 35008KT 35/18 A3002 RMK A01 T03530176  RH  035%=      5-min Rain = 0
KTA1 131830Z 01009KT 36/18 A3002 RMK A01 T03550175  RH  034%=      5-min Rain = 0
KTA1 131831Z 01007KT 36/17 A3002 RMK A01 T03550173  RH  034%=      5-min Rain = 0
KTA1 131832Z 02006KT 35/17 A3002 RMK A01 T03530172  RH  034%=      5-min Rain = 0
KTA1 131833Z 02010KT 35/18 A3002 RMK A01 T03520176  RH  035%=      5-min Rain = 0
KTA1 131834Z 01009KT 35/18 A3002 RMK A01 T03520175  RH  035%=      5-min Rain = 0
KTA1 131835Z 00007KT 35/17 A3002 RMK A01 T03510174  RH  035%=      5-min Rain = 0
KTA1 131836Z 04008KT 35/17 A3002 RMK A01 T03500173  RH  035%=      5-min Rain = 0
KTA1 131837Z 04008KT 35/17 A3002 RMK A01 T03500172  RH  035%=      5-min Rain = 0
KTA1 131838Z 02008KT 35/17 A3002 RMK A01 T03520173  RH  035%=      5-min Rain = 0
KTA1 131839Z 03010KT 35/17 A3002 RMK A01 T03510174  RH  035%=      5-min Rain = 0
KTA1 131840Z 02011KT 35/18 A3002 RMK A01 T03520175  RH  035%=      5-min Rain = 0
KTA1 131841Z 01011KT 35/18 A3002 RMK A01 T03520175  RH  035%=      5-min Rain = 0
KTA1 131842Z 00011KT 35/17 A3002 RMK A01 T03520174  RH  035%=      5-min Rain = 0
KTA1 131843Z 33007KT 35/17 A3002 RMK A01 T03530173  RH  035%=      5-min Rain = 0
KTA1 131844Z 01010KT 35/17 A3002 RMK A01 T03530174  RH  035%=      5-min Rain = 0
KTA1 131845Z 01010KT 35/18 A3002 RMK A01 T03520175  RH  035%=      5-min Rain = 0
KTA1 131846Z 03006KT 35/18 A3002 RMK A01 T03480175  RH  036%=      5-min Rain = 0
KTA1 131847Z 02007KT 35/18 A3002 RMK A01 T03500177  RH  036%=      5-min Rain = 0
KTA1 131848Z 04006KT 35/18 A3002 RMK A01 T03530176  RH  035%=      5-min Rain = 0
KTA1 131849Z 06005KT 35/17 A3002 RMK A01 T03520174  RH  035%=      5-min Rain = 0
KTA1 131850Z 02007G12KT 35/18 A3002 RMK A01 T03510176  RH  036%=      5-min Rain = 0
KTA1 131851Z 03009KT 36/18 A3002 RMK A01 T03550175  RH  034%=      5-min Rain = 0
KTA1 131852Z 02008KT 36/18 A3002 RMK A01 T03570175  RH  034%=      5-min Rain = 0
KTA1 131853Z 03007KT 36/17 A3002 RMK A01 T03610174  RH  033%=      5-min Rain = 0
KTA1 131854Z 04006KT 36/17 A3002 RMK A01 T03590172  RH  033%=      5-min Rain = 0
KTA1 131855Z 02008KT 36/17 A3002 RMK A01 T03580173  RH  034%=      5-min Rain = 0
KTA1 131856Z 03011KT 36/18 A3002 RMK A01 T03580176  RH  034%=      5-min Rain = 0
KTA1 131857Z 03012KT 36/18 A3002 RMK A01 T03600175  RH  034%=      5-min Rain = 0
KTA1 131858Z 02009KT 36/17 A3002 RMK A01 T03560172  RH  034%=      5-min Rain = 0
KTA1 131859Z 02007KT 35/17 A3002 RMK A01 T03530174  RH  035%=      5-min Rain = 0
KTA1 131900Z 05004KT 35/17 A3002 RMK A01 T03530174  RH  035%=      5-min Rain = 0
KTA1 131901Z 03005G10KT 36/18 A3001 RMK A01 T03560176  RH  035%=      5-min Rain = 0
KTA1 131902Z 01009KT 36/18 A3001 RMK A01 T03580176  RH  034%=      5-min Rain = 0
KTA1 131903Z 04008KT 36/18 A3001 RMK A01 T03580176  RH  034%=      5-min Rain = 0
KTA1 131904Z 04006KT 36/17 A3001 RMK A01 T03570174  RH  034%=      5-min Rain = 0
KTA1 131905Z 06009KT 36/18 A3001 RMK A01 T03550176  RH  035%=      5-min Rain = 0
KTA1 131906Z 08008KT 36/18 A3001 RMK A01 T03560176  RH  034%=      5-min Rain = 0
KTA1 131907Z 06006KT 36/18 A3001 RMK A01 T03580175  RH  034%=      5-min Rain = 0
KTA1 131908Z 01007KT 36/18 A3001 RMK A01 T03580176  RH  034%=      5-min Rain = 0
KTA1 131909Z 01006KT 36/18 A3001 RMK A01 T03580176  RH  034%=      5-min Rain = 0
KTA1 131910Z 03005G12KT 36/18 A3001 RMK A01 T03570175  RH  034%=      5-min Rain = 0
KTA1 131911Z 03007KT 36/18 A3002 RMK A01 T03560175  RH  034%=      5-min Rain = 0
KTA1 131912Z 04005KT 36/18 A3001 RMK A01 T03560175  RH  034%=      5-min Rain = 0
KTA1 131913Z 03007KT 36/18 A3001 RMK A01 T03570176  RH  034%=      5-min Rain = 0
KTA1 131914Z 00008KT 36/18 A3001 RMK A01 T03580177  RH  034%=      5-min Rain = 0
KTA1 131915Z 35007KT 36/18 A3001 RMK A01 T03590175  RH  034%=      5-min Rain = 0
KTA1 131916Z 35005KT 36/18 A3001 RMK A01 T03590176  RH  034%=      5-min Rain = 0
KTA1 131917Z 00007KT 36/18 A3001 RMK A01 T03620178  RH  034%=      5-min Rain = 0
KTA1 131918Z 36008KT 36/18 A3001 RMK A01 T03630179  RH  034%=      5-min Rain = 0
KTA1 131919Z 35010KT 37/18 A3001 RMK A01 T03650180  RH  034%=      5-min Rain = 0
KTA1 131920Z 35009KT 37/18 A3001 RMK A01 T03700179  RH  033%=      5-min Rain = 0
KTA1 131921Z 34009KT 37/18 A3001 RMK A01 T03680176  RH  032%=      5-min Rain = 0
KTA1 131922Z 00009KT 37/18 A3001 RMK A01 T03650178  RH  033%=      5-min Rain = 0
KTA1 131923Z 00009KT 36/18 A3001 RMK A01 T03630178  RH  034%=      5-min Rain = 0
KTA1 131924Z 35009G17KT 36/18 A3001 RMK A01 T03620179  RH  034%=      5-min Rain = 0
KTA1 131925Z 00015KT 36/18 A3001 RMK A01 T03630179  RH  034%=      5-min Rain = 0
KTA1 131926Z 01012G17KT 36/18 A3001 RMK A01 T03640180  RH  034%=      5-min Rain = 0
KTA1 131927Z 35008KT 36/18 A3001 RMK A01 T03630179  RH  034%=      5-min Rain = 0
KTA1 131928Z 34006KT 36/18 A3001 RMK A01 T03600178  RH  034%=      5-min Rain = 0
KTA1 131929Z 35007KT 36/18 A3001 RMK A01 T03600179  RH  034%=      5-min Rain = 0
KTA1 131930Z 36004KT 36/18 A3001 RMK A01 T03600178  RH  034%=      5-min Rain = 0
KTA1 131931Z 02008KT 36/18 A3001 RMK A01 T03590179  RH  034%=      5-min Rain = 0
KTA1 131932Z 04010KT 36/18 A3001 RMK A01 T03620179  RH  034%=      5-min Rain = 0
KTA1 131933Z 07005KT 36/18 A3001 RMK A01 T03630177  RH  033%=      5-min Rain = 0
KTA1 131934Z 05004KT 36/18 A3001 RMK A01 T03620176  RH  033%=      5-min Rain = 0
KTA1 131935Z 05005KT 36/18 A3001 RMK A01 T03610175  RH  033%=      5-min Rain = 0
KTA1 131936Z 00007KT 36/18 A3001 RMK A01 T03610176  RH  034%=      5-min Rain = 0
KTA1 131937Z 00004KT 36/18 A3001 RMK A01 T03620177  RH  034%=      5-min Rain = 0
KTA1 131938Z 35004KT 36/18 A3001 RMK A01 T03630178  RH  034%=      5-min Rain = 0
KTA1 131939Z 03010KT 37/18 A3001 RMK A01 T03650179  RH  033%=      5-min Rain = 0
KTA1 131940Z 01011KT 36/18 A3001 RMK A01 T03640179  RH  034%=      5-min Rain = 0
KTA1 131941Z 36009KT 36/18 A3001 RMK A01 T03640179  RH  034%=      5-min Rain = 0
KTA1 131942Z 02009KT 37/18 A3001 RMK A01 T03650180  RH  034%=      5-min Rain = 0
KTA1 131943Z 04008KT 37/18 A3001 RMK A01 T03660181  RH  034%=      5-min Rain = 0
KTA1 131944Z 07006KT 37/18 A3001 RMK A01 T03670180  RH  033%=      5-min Rain = 0
KTA1 131945Z 08011KT 37/18 A3001 RMK A01 T03660179  RH  033%=      5-min Rain = 0
KTA1 131946Z 08010KT 37/18 A3001 RMK A01 T03670180  RH  033%=      5-min Rain = 0
KTA1 131947Z 06011KT 37/18 A3001 RMK A01 T03710183  RH  033%=      5-min Rain = 0
KTA1 131948Z 05012KT 37/18 A3001 RMK A01 T03720182  RH  033%=      5-min Rain = 0
KTA1 131949Z 04012KT 37/18 A3001 RMK A01 T03700183  RH  033%=      5-min Rain = 0
KTA1 131950Z 06007KT 37/18 A3001 RMK A01 T03660181  RH  034%=      5-min Rain = 0
KTA1 131951Z 06009KT 37/18 A3001 RMK A01 T03650181  RH  034%=      5-min Rain = 0
KTA1 131952Z 06007KT 36/18 A3001 RMK A01 T03630180  RH  034%=      5-min Rain = 0
KTA1 131953Z 07008KT 36/18 A3001 RMK A01 T03620182  RH  035%=      5-min Rain = 0
KTA1 131954Z 08011KT 37/18 A3001 RMK A01 T03650183  RH  034%=      5-min Rain = 0
KTA1 131955Z 07010KT 37/18 A3001 RMK A01 T03680182  RH  034%=      5-min Rain = 0
KTA1 131956Z 08007KT 37/18 A3001 RMK A01 T03660182  RH  034%=      5-min Rain = 0
KTA1 131957Z 07012KT 37/18 A3001 RMK A01 T03660182  RH  034%=      5-min Rain = 0
KTA1 131958Z 04013KT 37/18 A3001 RMK A01 T03680183  RH  034%=      5-min Rain = 0
KTA1 131959Z 03013KT 37/18 A3001 RMK A01 T03700183  RH  034%=      5-min Rain = 0
KTA1 132000Z 03009G15KT 37/18 A3001 RMK A01 T03670182  RH  034%=      5-min Rain = 0
KTA1 132001Z 04012KT 37/18 A3001 RMK A01 T03660181  RH  034%=      5-min Rain = 0
KTA1 132002Z 06007G13KT 36/18 A30 RMK A01 T03630180  RH  034%=      5-min Rain = 0
KTA1 132003Z 03011KT 36/18 A3001 RMK A01 T03630182  RH  035%=      5-min Rain = 0
KTA1 132004Z 03010KT 37/18 A30 RMK A01 T03660183  RH  034%=      5-min Rain = 0
KTA1 132005Z 03011KT 37/18 A30 RMK A01 T03680182  RH  034%=      5-min Rain = 0
KTA1 132006Z 06008KT 37/18 A30 RMK A01 T03660183  RH  034%=      5-min Rain = 0
KTA1 132007Z 06011KT 36/18 A30 RMK A01 T03640181  RH  034%=      5-min Rain = 0
KTA1 132008Z 07010KT 37/18 A30 RMK A01 T03650181  RH  034%=      5-min Rain = 0
KTA1 132009Z 06011KT 37/18 A30 RMK A01 T03660183  RH  034%=      5-min Rain = 0
KTA1 132010Z 07010KT 37/18 A30 RMK A01 T03680182  RH  034%=      5-min Rain = 0
KTA1 132011Z 04014G19KT 37/18 A30 RMK A01 T03650181  RH  034%=      5-min Rain = 0
KTA1 132012Z 03010KT 36/18 A30 RMK A01 T03630182  RH  035%=      5-min Rain = 0
KTA1 132013Z 01011KT 36/18 A30 RMK A01 T03620182  RH  035%=      5-min Rain = 0
KTA1 132014Z 01009KT 36/18 A30 RMK A01 T03620180  RH  034%=      5-min Rain = 0
KTA1 132015Z 02010KT 36/18 A30 RMK A01 T03620182  RH  035%=      5-min Rain = 0
KTA1 132016Z 01008KT 37/18 A30 RMK A01 T03650183  RH  034%=      5-min Rain = 0
KTA1 132017Z 03007KT 37/18 A30 RMK A01 T03650181  RH  034%=      5-min Rain = 0
KTA1 132018Z 07006G12KT 36/18 A30 RMK A01 T03640183  RH  035%=      5-min Rain = 0
KTA1 132019Z 08010KT 37/18 A30 RMK A01 T03660182  RH  034%=      5-min Rain = 0
KTA1 132020Z 08009KT 37/18 A30 RMK A01 T03670182  RH  034%=      5-min Rain = 0
KTA1 132021Z 08008KT 37/18 A30 RMK A01 T03670182  RH  034%=      5-min Rain = 0
KTA1 132022Z 07008KT 37/18 A30 RMK A01 T03690183  RH  034%=      5-min Rain = 0
KTA1 132023Z 09006KT 37/18 A30 RMK A01 T03700183  RH  033%=      5-min Rain = 0
KTA1 132024Z 08006G12KT 37/18 A30 RMK A01 T03690184  RH  034%=      5-min Rain = 0
KTA1 132025Z 07010KT 38/19 A30 RMK A01 T03750186  RH  033%=      5-min Rain = 0
KTA1 132026Z 08011KT 38/18 A30 RMK A01 T03770184  RH  032%=      5-min Rain = 0
KTA1 132027Z 08013KT 37/18 A30 RMK A01 T03720181  RH  033%=      5-min Rain = 0
KTA1 132028Z 07013KT 37/18 A30 RMK A01 T03680179  RH  033%=      5-min Rain = 0
KTA1 132029Z 06010KT 37/18 A30 RMK A01 T03650180  RH  034%=      5-min Rain = 0
KTA1 132030Z 08009KT 37/18 A30 RMK A01 T03660181  RH  034%=      5-min Rain = 0
KTA1 132031Z 07009KT 37/18 A2999 RMK A01 T03670180  RH  033%=      5-min Rain = 0
KTA1 132032Z 06007KT 37/18 A30 RMK A01 T03680180  RH  033%=      5-min Rain = 0
KTA1 132033Z 06007KT 37/18 A2999 RMK A01 T03650180  RH  034%=      5-min Rain = 0
KTA1 132034Z 07008KT 37/18 A2999 RMK A01 T03670181  RH  034%=      5-min Rain = 0
KTA1 132035Z 07010G15KT 37/18 A2999 RMK A01 T03710182  RH  033%=      5-min Rain = 0
KTA1 132036Z 07011KT 37/18 A2999 RMK A01 T03710181  RH  033%=      5-min Rain = 0
KTA1 132037Z 06008KT 37/18 A2999 RMK A01 T03700181  RH  033%=      5-min Rain = 0
KTA1 132038Z 04010KT 37/18 A2999 RMK A01 T03690182  RH  033%=      5-min Rain = 0
KTA1 132039Z 03010KT 37/18 A2999 RMK A01 T03670181  RH  034%=      5-min Rain = 0
KTA1 132040Z 05009G14KT 36/18 A2999 RMK A01 T03630179  RH  034%=      5-min Rain = 0
KTA1 132041Z 05009KT 36/18 A2999 RMK A01 T03620178  RH  034%=      5-min Rain = 0
KTA1 132042Z 05008KT 37/18 A2999 RMK A01 T03650181  RH  034%=      5-min Rain = 0
KTA1 132043Z 01008KT 37/18 A2999 RMK A01 T03670180  RH  033%=      5-min Rain = 0
KTA1 132044Z 01007KT 37/18 A2999 RMK A01 T03670179  RH  033%=      5-min Rain = 0
KTA1 132045Z 05005KT 37/18 A2999 RMK A01 T03660178  RH  033%=      5-min Rain = 0
KTA1 132046Z 05007G12KT 36/18 A2999 RMK A01 T03640179  RH  034%=      5-min Rain = 0
KTA1 132047Z 04010KT 37/18 A2999 RMK A01 T03650178  RH  033%=      5-min Rain = 0
KTA1 132048Z 06010G15KT 37/18 A2999 RMK A01 T03660178  RH  033%=      5-min Rain = 0
KTA1 132049Z 06010KT 37/18 A2999 RMK A01 T03670178  RH  033%=      5-min Rain = 0
KTA1 132050Z 07012KT 37/18 A2999 RMK A01 T03710180  RH  033%=      5-min Rain = 0
KTA1 132051Z 08008KT 37/18 A2999 RMK A01 T03720177  RH  032%=      5-min Rain = 0
KTA1 132052Z 06009KT 37/18 A2999 RMK A01 T03710178  RH  032%=      5-min Rain = 0
KTA1 132053Z 07008KT 37/18 A2999 RMK A01 T03700177  RH  032%=      5-min Rain = 0
KTA1 132054Z 08007KT 37/18 A2999 RMK A01 T03670177  RH  033%=      5-min Rain = 0
KTA1 132055Z 06009KT 37/18 A2999 RMK A01 T03690178  RH  033%=      5-min Rain = 0
KTA1 132056Z 06011KT 37/18 A2999 RMK A01 T03730179  RH  032%=      5-min Rain = 0
KTA1 132057Z 06011KT 37/18 A2999 RMK A01 T03720177  RH  032%=      5-min Rain = 0
KTA1 132058Z 08006G11KT 37/18 A2999 RMK A01 T03690175  RH  032%=      5-min Rain = 0
KTA1 132059Z 05012KT 37/18 A2999 RMK A01 T03650175  RH  033%=      5-min Rain = 0
KTA1 132100Z 06010KT 37/17 A2999 RMK A01 T03650174  RH  033%=      5-min Rain = 0
KTA1 132101Z 06007KT 37/17 A2999 RMK A01 T03660174  RH  032%=      5-min Rain = 0
KTA1 132102Z 03007KT 36/18 A2999 RMK A01 T03640175  RH  033%=      5-min Rain = 0
KTA1 132103Z 03005KT 36/18 A2999 RMK A01 T03640175  RH  033%=      5-min Rain = 0
KTA1 132104Z 04004KT 37/18 A2999 RMK A01 T03670176  RH  033%=      5-min Rain = 0
KTA1 132105Z 02003KT 37/18 A2998 RMK A01 T03690175  RH  032%=      5-min Rain = 0
KTA1 132106Z 06005KT 37/18 A2998 RMK A01 T03680176  RH  032%=      5-min Rain = 0
KTA1 132107Z 06009G15KT 37/18 A2998 RMK A01 T03680177  RH  033%=      5-min Rain = 0
KTA1 132108Z 05011KT 37/18 A2999 RMK A01 T03700176  RH  032%=      5-min Rain = 0
KTA1 132109Z 05010KT 37/18 A2998 RMK A01 T03710179  RH  032%=      5-min Rain = 0
KTA1 132110Z 05010KT 37/18 A2999 RMK A01 T03730178  RH  032%=      5-min Rain = 0
KTA1 132111Z 05009KT 37/18 A2998 RMK A01 T03710175  RH  032%=      5-min Rain = 0
KTA1 132112Z 04008KT 37/18 A2998 RMK A01 T03680175  RH  032%=      5-min Rain = 0
KTA1 132113Z 03004KT 37/17 A2998 RMK A01 T03660173  RH  032%=      5-min Rain = 0
KTA1 132114Z 07006KT 36/17 A2998 RMK A01 T03630173  RH  033%=      5-min Rain = 0
KTA1 132115Z 08004KT 36/17 A2998 RMK A01 T03640173  RH  033%=      5-min Rain = 0
KTA1 132116Z 10002KT 37/17 A2998 RMK A01 T03650173  RH  032%=      5-min Rain = 0
KTA1 132117Z 11005KT 37/17 A2998 RMK A01 T03660174  RH  032%=      5-min Rain = 0
KTA1 132118Z 12005KT 37/17 A2998 RMK A01 T03680173  RH  032%=      5-min Rain = 0
KTA1 132119Z 08005KT 37/17 A2998 RMK A01 T03690174  RH  032%=      5-min Rain = 0
KTA1 132120Z 04008KT 37/18 A2998 RMK A01 T03700176  RH  032%=      5-min Rain = 0
KTA1 132121Z 05008KT 37/18 A2998 RMK A01 T03720177  RH  032%=      5-min Rain = 0
KTA1 132122Z 04006KT 37/18 A2998 RMK A01 T03720176  RH  032%=      5-min Rain = 0
KTA1 132123Z 04009KT 37/18 A2998 RMK A01 T03710176  RH  032%=      5-min Rain = 0
KTA1 132124Z 03011KT 37/18 A2998 RMK A01 T03730176  RH  032%=      5-min Rain = 0
KTA1 132125Z 02010KT 38/18 A2998 RMK A01 T03750175  RH  031%=      5-min Rain = 0
KTA1 132126Z 01007KT 37/17 A2997 RMK A01 T03700172  RH  031%=      5-min Rain = 0
KTA1 132127Z 00004KT 37/17 A2997 RMK A01 T03690173  RH  032%=      5-min Rain = 0
KTA1 132128Z 04004KT 37/17 A2997 RMK A01 T03690172  RH  031%=      5-min Rain = 0
KTA1 132129Z 03008G13KT 37/17 A2997 RMK A01 T03680174  RH  032%=      5-min Rain = 0
KTA1 132130Z 02010KT 37/18 A2997 RMK A01 T03680175  RH  032%=      5-min Rain = 0
KTA1 132131Z 03006KT 37/17 A2997 RMK A01 T03690174  RH  032%=      5-min Rain = 0
KTA1 132132Z 05009KT 37/18 A2997 RMK A01 T03690176  RH  032%=      5-min Rain = 0
KTA1 132133Z 04006KT 37/17 A2997 RMK A01 T03690174  RH  032%=      5-min Rain = 0
KTA1 132134Z 06003G8KT 37/17 A2997 RMK A01 T03670171  RH  031%=      5-min Rain = 0
KTA1 132135Z 12002KT 37/17 A2997 RMK A01 T03690170  RH  031%=      5-min Rain = 0
KTA1 132136Z 06007KT 37/17 A2997 RMK A01 T03720171  RH  031%=      5-min Rain = 0
KTA1 132137Z 06008KT 37/17 A2997 RMK A01 T03730171  RH  030%=      5-min Rain = 0
KTA1 132138Z 05011KT 37/18 A2997 RMK A01 T03730175  RH  031%=      5-min Rain = 0
KTA1 132139Z 06007KT 37/18 A2997 RMK A01 T03720175  RH  031%=      5-min Rain = 0
KTA1 132140Z 06011KT 37/18 A2997 RMK A01 T03700175  RH  032%=      5-min Rain = 0
KTA1 132141Z 06008KT 37/17 A2997 RMK A01 T03700174  RH  032%=      5-min Rain = 0
KTA1 132142Z 05006KT 37/17 A2997 RMK A01 T03690174  RH  032%=      5-min Rain = 0
KTA1 132143Z 06004KT 37/17 A2997 RMK A01 T03670173  RH  032%=      5-min Rain = 0
KTA1 132144Z 06004KT 37/17 A2997 RMK A01 T03650173  RH  032%=      5-min Rain = 0
KTA1 132145Z 08004KT 36/17 A2996 RMK A01 T03630173  RH  033%=      5-min Rain = 0
KTA1 132146Z 05005KT 36/17 A2996 RMK A01 T03640173  RH  033%=      5-min Rain = 0
KTA1 132147Z 06005KT 37/17 A2996 RMK A01 T03650174  RH  032%=      5-min Rain = 0
KTA1 132148Z 07008KT 37/17 A2996 RMK A01 T03690174  RH  032%=      5-min Rain = 0
KTA1 132149Z 06011KT 37/18 A2996 RMK A01 T03740176  RH  031%=      5-min Rain = 0
KTA1 132150Z 05011KT 38/18 A2996 RMK A01 T03750176  RH  031%=      5-min Rain = 0
KTA1 132151Z 05009KT 37/18 A2996 RMK A01 T03730175  RH  031%=      5-min Rain = 0
KTA1 132152Z 08006KT 37/17 A2996 RMK A01 T03710174  RH  032%=      5-min Rain = 0
KTA1 132153Z 08001G6KT 37/17 A2996 RMK A01 T03700174  RH  032%=      5-min Rain = 0
KTA1 132154Z 05007KT 37/17 A2996 RMK A01 T03700174  RH  032%=      5-min Rain = 0
KTA1 132155Z 07008KT 37/17 A2996 RMK A01 T03700173  RH  031%=      5-min Rain = 0
KTA1 132156Z 06006KT 37/17 A2996 RMK A01 T03710172  RH  031%=      5-min Rain = 0
KTA1 132157Z 07004KT 37/17 A2996 RMK A01 T03720172  RH  031%=      5-min Rain = 0
KTA1 132158Z 08006KT 37/17 A2996 RMK A01 T03710172  RH  031%=      5-min Rain = 0
KTA1 132159Z 06008KT 37/17 A2996 RMK A01 T03720172  RH  031%=      5-min Rain = 0
KTA1 132200Z 07007KT 37/17 A2996 RMK A01 T03710172  RH  031%=      5-min Rain = 0
KTA1 132201Z 06008KT 37/17 A2996 RMK A01 T03720171  RH  031%=      5-min Rain = 0
KTA1 132202Z 06008KT 37/17 A2996 RMK A01 T03730172  RH  031%=      5-min Rain = 0
KTA1 132203Z 06009KT 38/17 A2996 RMK A01 T03760171  RH  030%=      5-min Rain = 0
KTA1 132204Z 05007KT 38/17 A2996 RMK A01 T03770169  RH  029%=      5-min Rain = 0
KTA1 132205Z 04004KT 37/17 A2996 RMK A01 T03730167  RH  030%=      5-min Rain = 0
KTA1 132206Z 05005KT 37/17 A2996 RMK A01 T03710167  RH  030%=      5-min Rain = 0
KTA1 132207Z 04006KT 37/17 A2996 RMK A01 T03710169  RH  030%=      5-min Rain = 0
KTA1 132208Z 04005KT 37/17 A2996 RMK A01 T03710169  RH  030%=      5-min Rain = 0
KTA1 132209Z 05007KT 37/17 A2996 RMK A01 T03730170  RH  030%=      5-min Rain = 0
KTA1 132210Z 05011KT 37/17 A2996 RMK A01 T03740170  RH  030%=      5-min Rain = 0
KTA1 132211Z 06006KT 37/17 A2996 RMK A01 T03730168  RH  030%=      5-min Rain = 0
KTA1 132212Z 07006KT 37/17 A2996 RMK A01 T03730167  RH  030%=      5-min Rain = 0
KTA1 132213Z 09005KT 37/17 A2996 RMK A01 T03710167  RH  030%=      5-min Rain = 0
KTA1 132214Z 11005KT 37/17 A2996 RMK A01 T03720166  RH  030%=      5-min Rain = 0
KTA1 132215Z 11004KT 37/17 A2996 RMK A01 T03730166  RH  030%=      5-min Rain = 0
KTA1 132216Z 10007KT 37/17 A2996 RMK A01 T03720168  RH  030%=      5-min Rain = 0
KTA1 132217Z 06006KT 37/17 A2996 RMK A01 T03740169  RH  030%=      5-min Rain = 0
KTA1 132218Z 02005KT 38/17 A2996 RMK A01 T03750168  RH  030%=      5-min Rain = 0
KTA1 132219Z 02007KT 37/17 A2996 RMK A01 T03740168  RH  030%=      5-min Rain = 0
KTA1 132220Z 05008KT 38/17 A2996 RMK A01 T03760170  RH  030%=      5-min Rain = 0
KTA1 132221Z 05009KT 38/17 A2996 RMK A01 T03770172  RH  030%=      5-min Rain = 0
KTA1 132222Z 06007KT 38/17 A2996 RMK A01 T03760170  RH  030%=      5-min Rain = 0
KTA1 132223Z 04007KT 38/17 A2995 RMK A01 T03760171  RH  030%=      5-min Rain = 0
KTA1 132224Z 03008KT 38/17 A2995 RMK A01 T03770168  RH  029%=      5-min Rain = 0
KTA1 132225Z 04007KT 37/17 A2995 RMK A01 T03730167  RH  030%=      5-min Rain = 0
KTA1 132226Z 02006KT 37/17 A2995 RMK A01 T03720165  RH  030%=      5-min Rain = 0
KTA1 132227Z 03005KT 37/16 A2995 RMK A01 T03710164  RH  030%=      5-min Rain = 0
KTA1 132228Z 03008KT 37/17 A2995 RMK A01 T03720168  RH  030%=      5-min Rain = 0
KTA1 132229Z 03010KT 37/17 A2995 RMK A01 T03740167  RH  030%=      5-min Rain = 0
KTA1 132230Z 02006KT 37/17 A2995 RMK A01 T03730165  RH  029%=      5-min Rain = 0
KTA1 132231Z 04007KT 37/17 A2995 RMK A01 T03720170  RH  030%=      5-min Rain = 0
KTA1 132232Z 07009KT 37/17 A2995 RMK A01 T03740171  RH  030%=      5-min Rain = 0
KTA1 132233Z 08009KT 38/17 A2995 RMK A01 T03750171  RH  030%=      5-min Rain = 0
KTA1 132234Z 07005KT 38/17 A2995 RMK A01 T03750173  RH  030%=      5-min Rain = 0
KTA1 132235Z 07005KT 38/17 A2995 RMK A01 T03780174  RH  030%=      5-min Rain = 0
KTA1 132236Z 09006KT 38/17 A2995 RMK A01 T03800172  RH  030%=      5-min Rain = 0
KTA1 132237Z 09007KT 38/17 A2995 RMK A01 T03780170  RH  030%=      5-min Rain = 0
KTA1 132238Z 07009KT 38/17 A2995 RMK A01 T03760171  RH  030%=      5-min Rain = 0
KTA1 132239Z 06010KT 38/17 A2995 RMK A01 T03760170  RH  030%=      5-min Rain = 0
KTA1 132240Z 04011KT 38/17 A2995 RMK A01 T03770169  RH  029%=      5-min Rain = 0
KTA1 132241Z 05012KT 38/17 A2995 RMK A01 T03770169  RH  030%=      5-min Rain = 0
KTA1 132242Z 04009KT 38/17 A2995 RMK A01 T03750167  RH  029%=      5-min Rain = 0
KTA1 132243Z 03007KT 37/17 A2995 RMK A01 T03730167  RH  030%=      5-min Rain = 0
KTA1 132244Z 05007KT 37/17 A2995 RMK A01 T03720168  RH  030%=      5-min Rain = 0
KTA1 132245Z 06007KT 37/17 A2995 RMK A01 T03720168  RH  030%=      5-min Rain = 0
KTA1 132246Z 04006KT 37/17 A2995 RMK A01 T03720168  RH  030%=      5-min Rain = 0
KTA1 132247Z 05005KT 37/17 A2995 RMK A01 T03720166  RH  030%=      5-min Rain = 0
KTA1 132248Z 05002KT 37/17 A2995 RMK A01 T03720166  RH  030%=      5-min Rain = 0
KTA1 132249Z 05002KT 37/16 A2995 RMK A01 T03700164  RH  030%=      5-min Rain = 0
KTA1 132250Z 06006KT 37/17 A2995 RMK A01 T03690165  RH  030%=      5-min Rain = 0
KTA1 132251Z 07005KT 37/17 A2995 RMK A01 T03680165  RH  030%=      5-min Rain = 0
KTA1 132252Z 08004KT 37/17 A2995 RMK A01 T03690166  RH  030%=      5-min Rain = 0
KTA1 132253Z 06009KT 37/17 A2995 RMK A01 T03720168  RH  030%=      5-min Rain = 0
KTA1 132254Z 06009KT 37/17 A2995 RMK A01 T03720169  RH  030%=      5-min Rain = 0
KTA1 132255Z 08010KT 37/17 A2995 RMK A01 T03710171  RH  031%=      5-min Rain = 0
KTA1 132256Z 08010KT 37/17 A2995 RMK A01 T03730170  RH  030%=      5-min Rain = 0
KTA1 132257Z 09008KT 37/17 A2995 RMK A01 T03740170  RH  030%=      5-min Rain = 0
KTA1 132258Z 08008KT 37/17 A2995 RMK A01 T03740170  RH  030%=      5-min Rain = 0
KTA1 132259Z 07007KT 37/17 A2995 RMK A01 T03740169  RH  030%=      5-min Rain = 0
KTA1 132300Z 05008KT 37/17 A2995 RMK A01 T03720170  RH  030%=      5-min Rain = 0
KTA1 132301Z 05007KT 37/17 A2995 RMK A01 T03730171  RH  031%=      5-min Rain = 0
KTA1 132302Z 05005KT 37/17 A2995 RMK A01 T03740171  RH  030%=      5-min Rain = 0
KTA1 132303Z 03006KT 38/17 A2995 RMK A01 T03750173  RH  031%=      5-min Rain = 0
KTA1 132304Z 04008KT 38/17 A2995 RMK A01 T03760173  RH  030%=      5-min Rain = 0
KTA1 132305Z 05008KT 38/17 A2995 RMK A01 T03750170  RH  030%=      5-min Rain = 0
KTA1 132306Z 06004KT 37/17 A2995 RMK A01 T03700167  RH  030%=      5-min Rain = 0
KTA1 132307Z 06006G13KT 37/17 A2995 RMK A01 T03680168  RH  031%=      5-min Rain = 0
KTA1 132308Z 02007G13KT 37/17 A2995 RMK A01 T03700170  RH  031%=      5-min Rain = 0
KTA1 132309Z 02007KT 37/17 A2995 RMK A01 T03720169  RH  030%=      5-min Rain = 0
KTA1 132310Z 06008KT 37/17 A2995 RMK A01 T03720170  RH  031%=      5-min Rain = 0
KTA1 132311Z 06009KT 37/17 A2995 RMK A01 T03730174  RH  031%=      5-min Rain = 0
KTA1 132312Z 08010KT 38/17 A2995 RMK A01 T03770174  RH  031%=      5-min Rain = 0
KTA1 132313Z 09010KT 38/17 A2995 RMK A01 T03770171  RH  030%=      5-min Rain = 0
KTA1 132314Z 08008KT 38/17 A2995 RMK A01 T03750171  RH  030%=      5-min Rain = 0
KTA1 132315Z 07007KT 37/17 A2995 RMK A01 T03740171  RH  030%=      5-min Rain = 0
KTA1 132316Z 06006KT 37/17 A2995 RMK A01 T03740173  RH  031%=      5-min Rain = 0
KTA1 132317Z 04009KT 38/17 A2995 RMK A01 T03770171  RH  030%=      5-min Rain = 0
KTA1 132318Z 04009KT 38/17 A2995 RMK A01 T03770168  RH  029%=      5-min Rain = 0
KTA1 132319Z 05007KT 37/17 A2995 RMK A01 T03740168  RH  030%=      5-min Rain = 0
KTA1 132320Z 04007KT 37/17 A2995 RMK A01 T03740171  RH  030%=      5-min Rain = 0
KTA1 132321Z 03009KT 38/17 A2995 RMK A01 T03760171  RH  030%=      5-min Rain = 0
KTA1 132322Z 05009G15KT 38/17 A2996 RMK A01 T03750171  RH  030%=      5-min Rain = 0
KTA1 132323Z 05012KT 38/17 A2996 RMK A01 T03750171  RH  030%=      5-min Rain = 0
KTA1 132324Z 06011KT 37/17 A2996 RMK A01 T03740168  RH  030%=      5-min Rain = 0
KTA1 132325Z 05010KT 37/17 A2996 RMK A01 T03720169  RH  030%=      5-min Rain = 0
KTA1 132326Z 06010KT 37/17 A2996 RMK A01 T03720169  RH  030%=      5-min Rain = 0
KTA1 132327Z 06008KT 37/17 A2996 RMK A01 T03710168  RH  030%=      5-min Rain = 0
KTA1 132328Z 04007KT 37/17 A2996 RMK A01 T03710167  RH  030%=      5-min Rain = 0
KTA1 132329Z 05006KT 37/17 A2996 RMK A01 T03700167  RH  030%=      5-min Rain = 0
KTA1 132330Z 05007KT 37/17 A2996 RMK A01 T03700167  RH  030%=      5-min Rain = 0
KTA1 132331Z 05005KT 37/17 A2996 RMK A01 T03700168  RH  030%=      5-min Rain = 0
KTA1 132332Z 05009KT 37/17 A2996 RMK A01 T03710169  RH  031%=      5-min Rain = 0
KTA1 132333Z 05009KT 37/17 A2996 RMK A01 T03720168  RH  030%=      5-min Rain = 0
KTA1 132334Z 06007KT 37/17 A2996 RMK A01 T03720167  RH  030%=      5-min Rain = 0
KTA1 132335Z 04006KT 37/17 A2996 RMK A01 T03710167  RH  030%=      5-min Rain = 0
KTA1 132336Z 06003KT 37/17 A2996 RMK A01 T03710168  RH  030%=      5-min Rain = 0
KTA1 132337Z 08006KT 37/17 A2996 RMK A01 T03700168  RH  031%=      5-min Rain = 0
KTA1 132338Z 07006KT 37/17 A2996 RMK A01 T03680168  RH  031%=      5-min Rain = 0
KTA1 132339Z 05009KT 37/17 A2996 RMK A01 T03680169  RH  031%=      5-min Rain = 0
KTA1 132340Z 05006KT 37/17 A2996 RMK A01 T03670169  RH  031%=      5-min Rain = 0
KTA1 132341Z 07007KT 37/17 A2996 RMK A01 T03670170  RH  031%=      5-min Rain = 0
KTA1 132342Z 04008KT 37/17 A2996 RMK A01 T03670170  RH  031%=      5-min Rain = 0
KTA1 132343Z 03006KT 37/17 A2996 RMK A01 T03670169  RH  031%=      5-min Rain = 0
KTA1 132344Z 04007KT 37/17 A2996 RMK A01 T03670170  RH  031%=      5-min Rain = 0
KTA1 132345Z 04008KT 37/17 A2996 RMK A01 T03680171  RH  031%=      5-min Rain = 0
KTA1 132346Z 07007KT 37/17 A2996 RMK A01 T03690172  RH  031%=      5-min Rain = 0
KTA1 132347Z 08007KT 37/17 A2996 RMK A01 T03710170  RH  031%=      5-min Rain = 0
KTA1 132348Z 08009KT 37/17 A2996 RMK A01 T03710171  RH  031%=      5-min Rain = 0
KTA1 132349Z 08010KT 37/17 A2996 RMK A01 T03710170  RH  031%=      5-min Rain = 0
KTA1 132350Z 07009KT 37/17 A2996 RMK A01 T03720171  RH  031%=      5-min Rain = 0
KTA1 132351Z 08009KT 37/17 A2996 RMK A01 T03730170  RH  030%=      5-min Rain = 0
KTA1 132352Z 06007KT 37/17 A2996 RMK A01 T03720170  RH  030%=      5-min Rain = 0
KTA1 132353Z 06006KT 37/17 A2996 RMK A01 T03710170  RH  031%=      5-min Rain = 0
KTA1 132354Z 08007KT 37/17 A2996 RMK A01 T03700171  RH  031%=      5-min Rain = 0
KTA1 132355Z 06009KT 37/17 A2996 RMK A01 T03700171  RH  031%=      5-min Rain = 0
KTA1 132356Z 06011KT 37/17 A2996 RMK A01 T03700172  RH  031%=      5-min Rain = 0
KTA1 132357Z 06008KT 37/17 A2996 RMK A01 T03700172  RH  031%=      5-min Rain = 0
KTA1 132358Z 07006KT 37/17 A2996 RMK A01 T03690171  RH  031%=      5-min Rain = 0
KTA1 132359Z 05010KT 37/17 A2996 RMK A01 T03680172  RH  031%=      5-min Rain = 0
KTA1 140000Z 05010KT 37/17 A2996 RMK A01 T03700172  RH  031%=      5-min Rain = 0
KTA1 140001Z 04010KT 37/17 A2996 RMK A01 T03690172  RH  031%=      5-min Rain = 0
KTA1 140002Z 04011KT 37/17 A2996 RMK A01 T03690172  RH  031%=      5-min Rain = 0
KTA1 140003Z 04009KT 37/17 A2996 RMK A01 T03690172  RH  032%=      5-min Rain = 0
KTA1 140004Z 04008KT 37/17 A2996 RMK A01 T03690172  RH  032%=      5-min Rain = 0
KTA1 140005Z 03005KT 37/17 A2996 RMK A01 T03680172  RH  031%=      5-min Rain = 0
KTA1 140006Z 04010KT 37/17 A2996 RMK A01 T03680173  RH  032%=      5-min Rain = 0
KTA1 140007Z 04012KT 37/17 A2996 RMK A01 T03690172  RH  031%=      5-min Rain = 0
KTA1 140008Z 04008KT 37/17 A2996 RMK A01 T03680172  RH  032%=      5-min Rain = 0
KTA1 140009Z 02008KT 37/17 A2996 RMK A01 T03670173  RH  032%=      5-min Rain = 0
KTA1 140010Z 03008KT 37/17 A2996 RMK A01 T03670172  RH  032%=      5-min Rain = 0
KTA1 140011Z 04008KT 37/17 A2996 RMK A01 T03670172  RH  032%=      5-min Rain = 0
KTA1 140012Z 05011KT 37/17 A2996 RMK A01 T03680172  RH  032%=      5-min Rain = 0
KTA1 140013Z 06010KT 37/17 A2996 RMK A01 T03690170  RH  031%=      5-min Rain = 0
KTA1 140014Z 07008KT 37/17 A2996 RMK A01 T03690172  RH  031%=      5-min Rain = 0
KTA1 140015Z 06008KT 37/17 A2996 RMK A01 T03700174  RH  032%=      5-min Rain = 0
KTA1 140016Z 07008KT 37/17 A2996 RMK A01 T03710173  RH  031%=      5-min Rain = 0
KTA1 140017Z 06009KT 37/17 A2996 RMK A01 T03710173  RH  031%=      5-min Rain = 0
KTA1 140018Z 05007KT 37/17 A2996 RMK A01 T03710174  RH  032%=      5-min Rain = 0
KTA1 140019Z 05009KT 37/17 A2996 RMK A01 T03700173  RH  031%=      5-min Rain = 0
KTA1 140020Z 06008KT 37/17 A2996 RMK A01 T03700173  RH  032%=      5-min Rain = 0
KTA1 140021Z 06010KT 37/17 A2996 RMK A01 T03680172  RH  031%=      5-min Rain = 0
KTA1 140022Z 06010KT 37/17 A2996 RMK A01 T03670171  RH  032%=      5-min Rain = 0
KTA1 140023Z 06010KT 37/17 A2996 RMK A01 T03650171  RH  032%=      5-min Rain = 0
KTA1 140024Z 07010KT 36/17 A2996 RMK A01 T03640172  RH  032%=      5-min Rain = 0
KTA1 140025Z 08012KT 36/17 A2996 RMK A01 T03640171  RH  032%=      5-min Rain = 0
KTA1 140026Z 08010KT 36/17 A2996 RMK A01 T03630170  RH  032%=      5-min Rain = 0
KTA1 140027Z 08010KT 36/17 A2996 RMK A01 T03620171  RH  032%=      5-min Rain = 0
KTA1 140028Z 07010KT 36/17 A2996 RMK A01 T03620171  RH  032%=      5-min Rain = 0
KTA1 140029Z 06011KT 36/17 A2996 RMK A01 T03610171  RH  032%=      5-min Rain = 0
KTA1 140030Z 06011KT 36/17 A2996 RMK A01 T03620171  RH  032%=      5-min Rain = 0
KTA1 140031Z 06011KT 36/17 A2996 RMK A01 T03610171  RH  032%=      5-min Rain = 0
KTA1 140032Z 06009KT 36/17 A2996 RMK A01 T03610170  RH  032%=      5-min Rain = 0
KTA1 140033Z 05010KT 36/17 A2996 RMK A01 T03610170  RH  033%=      5-min Rain = 0
KTA1 140034Z 04009KT 36/17 A2996 RMK A01 T03610170  RH  033%=      5-min Rain = 0
KTA1 140035Z 04010KT 36/17 A2997 RMK A01 T03600170  RH  033%=      5-min Rain = 0
KTA1 140036Z 04011KT 36/17 A2996 RMK A01 T03600170  RH  033%=      5-min Rain = 0
KTA1 140037Z 05010KT 36/17 A2997 RMK A01 T03590170  RH  033%=      5-min Rain = 0
KTA1 140038Z 04011KT 36/17 A2997 RMK A01 T03590170  RH  033%=      5-min Rain = 0
KTA1 140039Z 05011KT 36/17 A2997 RMK A01 T03590169  RH  033%=      5-min Rain = 0
KTA1 140040Z 05010KT 36/17 A2997 RMK A01 T03590170  RH  033%=      5-min Rain = 0
KTA1 140041Z 06009KT 36/17 A2997 RMK A01 T03590170  RH  033%=      5-min Rain = 0
KTA1 140042Z 06008KT 36/17 A2996 RMK A01 T03590170  RH  033%=      5-min Rain = 0
KTA1 140043Z 05009KT 36/17 A2996 RMK A01 T03590170  RH  033%=      5-min Rain = 0
KTA1 140044Z 06008KT 36/17 A2996 RMK A01 T03590170  RH  033%=      5-min Rain = 0
KTA1 140045Z 07009KT 36/17 A2996 RMK A01 T03580170  RH  033%=      5-min Rain = 0
KTA1 140046Z 07008KT 36/17 A2997 RMK A01 T03580169  RH  033%=      5-min Rain = 0
KTA1 140047Z 07010KT 36/17 A2997 RMK A01 T03580169  RH  033%=      5-min Rain = 0
KTA1 140048Z 07012KT 36/17 A2997 RMK A01 T03580169  RH  033%=      5-min Rain = 0
KTA1 140049Z 07010KT 36/17 A2997 RMK A01 T03570169  RH  033%=      5-min Rain = 0
KTA1 140050Z 07007KT 36/17 A2997 RMK A01 T03570169  RH  033%=      5-min Rain = 0
KTA1 140051Z 07007KT 36/17 A2997 RMK A01 T03580170  RH  033%=      5-min Rain = 0
KTA1 140052Z 06008KT 36/17 A2997 RMK A01 T03570170  RH  033%=      5-min Rain = 0
KTA1 140053Z 07008KT 36/17 A2997 RMK A01 T03580170  RH  033%=      5-min Rain = 0
KTA1 140054Z 06008KT 36/17 A2997 RMK A01 T03570170  RH  033%=      5-min Rain = 0
KTA1 140055Z 06011KT 36/17 A2997 RMK A01 T03580170  RH  033%=      5-min Rain = 0
KTA1 140056Z 06010KT 36/17 A2997 RMK A01 T03570170  RH  033%=      5-min Rain = 0
KTA1 140057Z 06010KT 36/17 A2997 RMK A01 T03570170  RH  033%=      5-min Rain = 0
KTA1 140058Z 05008KT 36/17 A2997 RMK A01 T03570171  RH  033%=      5-min Rain = 0
KTA1 140059Z 06007KT 36/17 A2997 RMK A01 T03560170  RH  033%=      5-min Rain = 0
KTA1 140100Z 05010KT 36/17 A2997 RMK A01 T03570171  RH  033%=      5-min Rain = 0
KTA1 140101Z 05010KT 36/17 A2997 RMK A01 T03560171  RH  033%=      5-min Rain = 0
KTA1 140102Z 06010KT 36/17 A2997 RMK A01 T03560171  RH  033%=      5-min Rain = 0
KTA1 140103Z 06009KT 36/17 A2997 RMK A01 T03570172  RH  034%=      5-min Rain = 0
KTA1 140104Z 05010KT 36/17 A2997 RMK A01 T03560172  RH  034%=      5-min Rain = 0
KTA1 140105Z 06008KT 36/17 A2997 RMK A01 T03570173  RH  034%=      5-min Rain = 0
KTA1 140106Z 05010KT 36/17 A2997 RMK A01 T03560173  RH  034%=      5-min Rain = 0
KTA1 140107Z 05009KT 36/17 A2997 RMK A01 T03560173  RH  034%=      5-min Rain = 0
KTA1 140108Z 06011KT 36/17 A2997 RMK A01 T03550173  RH  034%=      5-min Rain = 0
KTA1 140109Z 06010KT 36/17 A2997 RMK A01 T03550173  RH  034%=      5-min Rain = 0
KTA1 140110Z 07010KT 36/17 A2997 RMK A01 T03550173  RH  034%=      5-min Rain = 0
KTA1 140111Z 07009KT 35/17 A2997 RMK A01 T03540173  RH  034%=      5-min Rain = 0
KTA1 140112Z 07008KT 35/17 A2997 RMK A01 T03540174  RH  034%=      5-min Rain = 0
KTA1 140113Z 07008KT 35/17 A2997 RMK A01 T03540174  RH  035%=      5-min Rain = 0
KTA1 140114Z 07011G17KT 35/17 A2997 RMK A01 T03540174  RH  035%=      5-min Rain = 0
KTA1 140115Z 10016G22KT 35/18 A2997 RMK A01 T03530175  RH  035%=      5-min Rain = 0
KTA1 140116Z 13014KT 35/18 A2997 RMK A01 T03510177  RH  036%=      5-min Rain = 0
KTA1 140117Z 12011KT 35/18 A2997 RMK A01 T03490177  RH  036%=      5-min Rain = 0
KTA1 140118Z 12010KT 35/18 A2997 RMK A01 T03480177  RH  037%=      5-min Rain = 0
KTA1 140119Z 12008KT 35/18 A2998 RMK A01 T03460178  RH  037%=      5-min Rain = 0
KTA1 140120Z 12008KT 35/18 A2998 RMK A01 T03450178  RH  037%=      5-min Rain = 0
KTA1 140121Z 13008KT 35/18 A2998 RMK A01 T03450178  RH  037%=      5-min Rain = 0
KTA1 140122Z 12009KT 34/18 A2998 RMK A01 T03440179  RH  038%=      5-min Rain = 0
KTA1 140123Z 12011KT 34/18 A2998 RMK A01 T03430179  RH  038%=      5-min Rain = 0
KTA1 140124Z 13013G18KT 34/18 A2998 RMK A01 T03430180  RH  038%=      5-min Rain = 0
KTA1 140125Z 14015KT 34/18 A2998 RMK A01 T03410183  RH  039%=      5-min Rain = 0
KTA1 140126Z 15013KT 34/19 A2998 RMK A01 T03380185  RH  040%=      5-min Rain = 0
KTA1 140127Z 15011KT 34/19 A2998 RMK A01 T03350185  RH  041%=      5-min Rain = 0
KTA1 140128Z 15012KT 33/19 A2998 RMK A01 T03330185  RH  042%=      5-min Rain = 0
KTA1 140129Z 15010KT 33/19 A2998 RMK A01 T03320185  RH  042%=      5-min Rain = 0
KTA1 140130Z 15011KT 33/19 A2998 RMK A01 T03310185  RH  042%=      5-min Rain = 0
KTA1 140131Z 15012KT 33/19 A2999 RMK A01 T03300185  RH  042%=      5-min Rain = 0
KTA1 140132Z 16014KT 33/19 A2999 RMK A01 T03290185  RH  043%=      5-min Rain = 0
KTA1 140133Z 16012KT 33/19 A2999 RMK A01 T03280186  RH  043%=      5-min Rain = 0
KTA1 140134Z 16014KT 33/19 A2999 RMK A01 T03270185  RH  043%=      5-min Rain = 0
KTA1 140135Z 16013KT 33/19 A2999 RMK A01 T03250185  RH  043%=      5-min Rain = 0
KTA1 140136Z 16011KT 32/19 A2999 RMK A01 T03240185  RH  044%=      5-min Rain = 0
KTA1 140137Z 15011KT 32/18 A2999 RMK A01 T03230184  RH  044%=      5-min Rain = 0
KTA1 140138Z 16010KT 32/18 A2999 RMK A01 T03230184  RH  044%=      5-min Rain = 0
KTA1 140139Z 15012KT 32/18 A2999 RMK A01 T03230184  RH  044%=      5-min Rain = 0
KTA1 140140Z 15012KT 32/18 A2999 RMK A01 T03220183  RH  044%=      5-min Rain = 0
KTA1 140141Z 16011KT 32/18 A30 RMK A01 T03220183  RH  044%=      5-min Rain = 0
KTA1 140142Z 15011KT 32/18 A30 RMK A01 T03220183  RH  044%=      5-min Rain = 0
KTA1 140143Z 15012KT 32/18 A30 RMK A01 T03210182  RH  044%=      5-min Rain = 0
KTA1 140144Z 15013G18KT 32/18 A30 RMK A01 T03200181  RH  044%=      5-min Rain = 0
KTA1 140145Z 15013KT 32/18 A30 RMK A01 T03200181  RH  044%=      5-min Rain = 0
KTA1 140146Z 15012KT 32/18 A30 RMK A01 T03190181  RH  044%=      5-min Rain = 0
KTA1 140147Z 15011KT 32/18 A30 RMK A01 T03190180  RH  044%=      5-min Rain = 0
KTA1 140148Z 15010KT 32/18 A3001 RMK A01 T03190180  RH  044%=      5-min Rain = 0
KTA1 140149Z 14009KT 32/18 A3001 RMK A01 T03180180  RH  044%=      5-min Rain = 0
KTA1 140150Z 14012KT 32/18 A3001 RMK A01 T03180180  RH  044%=      5-min Rain = 0
KTA1 140151Z 14011KT 32/18 A3001 RMK A01 T03180180  RH  044%=      5-min Rain = 0
KTA1 140152Z 14014KT 32/18 A3001 RMK A01 T03180179  RH  044%=      5-min Rain = 0
KTA1 140153Z 14015KT 32/18 A3001 RMK A01 T03180179  RH  044%=      5-min Rain = 0
KTA1 140154Z 14014KT 32/18 A3001 RMK A01 T03180178  RH  043%=      5-min Rain = 0
KTA1 140155Z 14016KT 32/18 A3001 RMK A01 T03180177  RH  043%=      5-min Rain = 0
KTA1 140156Z 14012KT 32/18 A3001 RMK A01 T03180176  RH  043%=      5-min Rain = 0
KTA1 140157Z 14013KT 32/18 A3001 RMK A01 T03170176  RH  043%=      5-min Rain = 0
KTA1 140158Z 14012KT 32/18 A3002 RMK A01 T03170176  RH  043%=      5-min Rain = 0
KTA1 140159Z 13012KT 32/18 A3002 RMK A01 T03170176  RH  043%=      5-min Rain = 0
KTA1 140200Z 14012KT 32/18 A3002 RMK A01 T03170175  RH  043%=      5-min Rain = 0
KTA1 140201Z 14014KT 32/18 A3002 RMK A01 T03170175  RH  043%=      5-min Rain = 0
KTA1 140202Z 14012KT 32/18 A3002 RMK A01 T03170175  RH  043%=      5-min Rain = 0
KTA1 140203Z 15011G16KT 32/18 A3002 RMK A01 T03160175  RH  043%=      5-min Rain = 0
KTA1 140204Z 15011KT 32/18 A3002 RMK A01 T03160175  RH  043%=      5-min Rain = 0
KTA1 140205Z 14010KT 32/18 A3002 RMK A01 T03160175  RH  043%=      5-min Rain = 0
KTA1 140206Z 14010KT 32/18 A3002 RMK A01 T03150175  RH  043%=      5-min Rain = 0
KTA1 140207Z 13010KT 32/18 A3002 RMK A01 T03150175  RH  043%=      5-min Rain = 0
KTA1 140208Z 13011KT 32/18 A3002 RMK A01 T03150176  RH  043%=      5-min Rain = 0
KTA1 140209Z 13011KT 32/18 A3002 RMK A01 T03150176  RH  044%=      5-min Rain = 0
KTA1 140210Z 14010KT 31/18 A3002 RMK A01 T03140176  RH  044%=      5-min Rain = 0
KTA1 140211Z 13009KT 31/18 A3002 RMK A01 T03140176  RH  044%=      5-min Rain = 0
KTA1 140212Z 12010KT 31/18 A3002 RMK A01 T03140176  RH  044%=      5-min Rain = 0
KTA1 140213Z 10011KT 31/18 A3002 RMK A01 T03130176  RH  044%=      5-min Rain = 0
KTA1 140214Z 10013G19KT 31/18 A3002 RMK A01 T03110177  RH  045%=      5-min Rain = 0
KTA1 140215Z 10012KT 31/18 A3002 RMK A01 T03070175  RH  045%=      5-min Rain = 0
KTA1 140216Z 10011KT 30/17 A3002 RMK A01 T03020174  RH  046%=      5-min Rain = 0
KTA1 140217Z 09012KT 30/17 A3002 RMK A01 T02990174  RH  047%=      5-min Rain = 0
KTA1 140218Z 10013KT 30/17 A3003 RMK A01 T02970173  RH  047%=      5-min Rain = 0
KTA1 140219Z 10013KT 29/17 A3003 RMK A01 T02940172  RH  048%=      5-min Rain = 0
KTA1 140220Z 10014KT 29/17 A3003 RMK A01 T02930171  RH  048%=      5-min Rain = 0
KTA1 140221Z 10014KT 29/17 A3003 RMK A01 T02920171  RH  048%=      5-min Rain = 0
KTA1 140222Z 11013KT 29/17 A3003 RMK A01 T02910170  RH  048%=      5-min Rain = 0
KTA1 140223Z 10013KT 29/17 A3003 RMK A01 T02910169  RH  048%=      5-min Rain = 0
KTA1 140224Z 10008KT 29/17 A3003 RMK A01 T02910168  RH  048%=      5-min Rain = 0
KTA1 140225Z 10012KT 29/17 A3003 RMK A01 T02910167  RH  047%=      5-min Rain = 0
KTA1 140226Z 10014KT 29/17 A3004 RMK A01 T02910165  RH  047%=      5-min Rain = 0
KTA1 140227Z 10012KT 29/17 A3004 RMK A01 T02900165  RH  047%=      5-min Rain = 0
KTA1 140228Z 09011KT 29/17 A3004 RMK A01 T02900165  RH  047%=      5-min Rain = 0
KTA1 140229Z 08011KT 29/17 A3004 RMK A01 T02890165  RH  047%=      5-min Rain = 0
KTA1 140230Z 08010KT 29/17 A3004 RMK A01 T02900165  RH  047%=      5-min Rain = 0
KTA1 140231Z 08012KT 29/16 A3004 RMK A01 T02900164  RH  047%=      5-min Rain = 0
KTA1 140232Z 07015KT 29/16 A3004 RMK A01 T02900162  RH  046%=      5-min Rain = 0
KTA1 140233Z 06015KT 29/16 A3004 RMK A01 T02900159  RH  045%=      5-min Rain = 0
KTA1 140234Z 08017KT 29/16 A3005 RMK A01 T02910160  RH  045%=      5-min Rain = 0
KTA1 140235Z 08018KT 29/17 A3005 RMK A01 T02890167  RH  048%=      5-min Rain = 0
KTA1 140236Z 08017KT 29/16 A3004 RMK A01 T02870163  RH  047%=      5-min Rain = 0
KTA1 140237Z 08018G23KT 29/16 A3004 RMK A01 T02890159  RH  045%=      5-min Rain = 0
KTA1 140238Z 09017KT 30/15 A3004 RMK A01 T02960154  RH  042%=      5-min Rain = 0
KTA1 140239Z 10021G29KT 30/15 A3004 RMK A01 T03010153  RH  041%=      5-min Rain = 0
KTA1 140240Z 09024KT 30/16 A3004 RMK A01 T02970164  RH  045%=      5-min Rain = 0
KTA1 140241Z 10021KT 29/16 A3004 RMK A01 T02910163  RH  046%=      5-min Rain = 0
KTA1 140242Z 10020KT 29/16 A3004 RMK A01 T02890164  RH  047%=      5-min Rain = 0
KTA1 140243Z 10018G23KT 29/16 A3004 RMK A01 T02850163  RH  048%=      5-min Rain = 0
KTA1 140244Z 10016KT 28/16 A3004 RMK A01 T02820164  RH  049%=      5-min Rain = 0
KTA1 140245Z 10013KT 28/17 A3004 RMK A01 T02820166  RH  049%=      5-min Rain = 0
KTA1 140246Z 10014G19KT 28/17 A3004 RMK A01 T02810169  RH  050%=      5-min Rain = 0
KTA1 140247Z 10014KT 28/17 A3005 RMK A01 T02790171  RH  052%=      5-min Rain = 0
KTA1 140248Z 10014KT 28/17 A3005 RMK A01 T02780166  RH  050%=      5-min Rain = 0
KTA1 140249Z 10013KT 28/16 A3005 RMK A01 T02810164  RH  049%=      5-min Rain = 0
KTA1 140250Z 10013KT 28/16 A3005 RMK A01 T02840161  RH  047%=      5-min Rain = 0
KTA1 140251Z 10011KT 29/16 A3005 RMK A01 T02860160  RH  046%=      5-min Rain = 0
KTA1 140252Z 09010KT 29/16 A3005 RMK A01 T02860160  RH  046%=      5-min Rain = 0
KTA1 140253Z 09011KT 29/16 A3005 RMK A01 T02860161  RH  047%=      5-min Rain = 0
KTA1 140254Z 10010KT 29/16 A3005 RMK A01 T02860162  RH  047%=      5-min Rain = 0
KTA1 140255Z 10009KT 29/17 A3005 RMK A01 T02860165  RH  048%=      5-min Rain = 0
KTA1 140256Z 09011KT 28/17 A3006 RMK A01 T02830167  RH  049%=      5-min Rain = 0
KTA1 140257Z 09011KT 28/17 A3006 RMK A01 T02810166  RH  050%=      5-min Rain = 0
KTA1 140258Z 09009KT 28/17 A3006 RMK A01 T02790169  RH  051%=      5-min Rain = 0
KTA1 140259Z 10007KT 28/17 A3006 RMK A01 T02770170  RH  052%=      5-min Rain = 0
KTA1 140300Z 13007KT 28/17 A3006 RMK A01 T02760172  RH  053%=      5-min Rain = 0
KTA1 140301Z 17008KT 28/17 A3006 RMK A01 T02750172  RH  053%=      5-min Rain = 0
KTA1 140302Z 18010KT 28/17 A3006 RMK A01 T02750172  RH  054%=      5-min Rain = 0
KTA1 140303Z 17011KT 27/17 A3005 RMK A01 T02740173  RH  054%=      5-min Rain = 0
KTA1 140304Z 17008KT 27/17 A3005 RMK A01 T02730173  RH  054%=      5-min Rain = 0
KTA1 140305Z 16006KT 27/17 A3005 RMK A01 T02720172  RH  054%=      5-min Rain = 0
KTA1 140306Z 16007KT 27/17 A3005 RMK A01 T02720172  RH  054%=      5-min Rain = 0
KTA1 140307Z 15007KT 27/17 A3005 RMK A01 T02720171  RH  054%=      5-min Rain = 0
KTA1 140308Z 15007KT 27/17 A3005 RMK A01 T02720171  RH  054%=      5-min Rain = 0
KTA1 140309Z 15006KT 27/17 A3005 RMK A01 T02720170  RH  054%=      5-min Rain = 0
KTA1 140310Z 15006KT 27/17 A3005 RMK A01 T02720170  RH  054%=      5-min Rain = 0
KTA1 140311Z 14007KT 27/17 A3005 RMK A01 T02720169  RH  053%=      5-min Rain = 0
KTA1 140312Z 14007KT 27/17 A3005 RMK A01 T02730168  RH  053%=      5-min Rain = 0
KTA1 140313Z 14006KT 27/17 A3005 RMK A01 T02740168  RH  052%=      5-min Rain = 0
KTA1 140314Z 14006KT 28/17 A3005 RMK A01 T02750169  RH  052%=      5-min Rain = 0
KTA1 140315Z 14006KT 28/17 A3005 RMK A01 T02750169  RH  052%=      5-min Rain = 0
KTA1 140316Z 14006KT 28/17 A3005 RMK A01 T02750169  RH  052%=      5-min Rain = 0
KTA1 140317Z 14006KT 28/17 A3005 RMK A01 T02750169  RH  052%=      5-min Rain = 0
KTA1 140318Z 13005KT 28/17 A3005 RMK A01 T02750169  RH  053%=      5-min Rain = 0
KTA1 140319Z 13005KT 28/17 A3005 RMK A01 T02750170  RH  053%=      5-min Rain = 0
KTA1 140320Z 13004KT 28/17 A3005 RMK A01 T02750169  RH  053%=      5-min Rain = 0
KTA1 140321Z 12004KT 27/17 A3005 RMK A01 T02740169  RH  053%=      5-min Rain = 0
KTA1 140322Z 12004KT 27/17 A3005 RMK A01 T02740169  RH  053%=      5-min Rain = 0
KTA1 140323Z 11003KT 27/17 A3005 RMK A01 T02740169  RH  053%=      5-min Rain = 0
KTA1 140324Z 11003KT 27/17 A3005 RMK A01 T02730169  RH  053%=      5-min Rain = 0
KTA1 140325Z 11003KT 27/17 A3005 RMK A01 T02730169  RH  053%=      5-min Rain = 0
KTA1 140326Z 10003KT 27/17 A3005 RMK A01 T02730170  RH  053%=      5-min Rain = 0
KTA1 140327Z 09004KT 27/17 A3005 RMK A01 T02730169  RH  053%=      5-min Rain = 0
KTA1 140328Z 08004KT 27/17 A3005 RMK A01 T02730169  RH  053%=      5-min Rain = 0
KTA1 140329Z 07005KT 27/17 A3005 RMK A01 T02720169  RH  053%=      5-min Rain = 0
KTA1 140330Z 07005KT 27/17 A3005 RMK A01 T02720172  RH  054%=      5-min Rain = 0
KTA1 140331Z 07005KT 27/17 A3005 RMK A01 T02700174  RH  055%=      5-min Rain = 0
KTA1 140332Z 07005KT 27/18 A3005 RMK A01 T02690175  RH  056%=      5-min Rain = 0
KTA1 140333Z 07005KT 27/18 A3005 RMK A01 T02690176  RH  057%=      5-min Rain = 0
KTA1 140334Z 07004KT 27/18 A3005 RMK A01 T02680177  RH  057%=      5-min Rain = 0
KTA1 140335Z 07004KT 27/18 A3005 RMK A01 T02670178  RH  058%=      5-min Rain = 0
KTA1 140336Z 06005KT 27/18 A3005 RMK A01 T02670179  RH  059%=      5-min Rain = 0
KTA1 140337Z 06005KT 27/18 A3005 RMK A01 T02660180  RH  059%=      5-min Rain = 0
KTA1 140338Z 06006KT 27/18 A3005 RMK A01 T02660180  RH  059%=      5-min Rain = 0
KTA1 140339Z 06006KT 27/18 A3005 RMK A01 T02660179  RH  059%=      5-min Rain = 0
KTA1 140340Z 06006KT 27/18 A3005 RMK A01 T02660177  RH  058%=      5-min Rain = 0
KTA1 140341Z 06005KT 27/18 A3005 RMK A01 T02670177  RH  058%=      5-min Rain = 0
KTA1 140342Z 05005KT 27/18 A3006 RMK A01 T02680176  RH  057%=      5-min Rain = 0
KTA1 140343Z 05005KT 27/18 A3006 RMK A01 T02680176  RH  057%=      5-min Rain = 0
KTA1 140344Z 05005KT 27/18 A3006 RMK A01 T02680176  RH  057%=      5-min Rain = 0
KTA1 140345Z 05005KT 27/18 A3006 RMK A01 T02690177  RH  057%=      5-min Rain = 0
KTA1 140346Z 05005KT 27/18 A3006 RMK A01 T02690177  RH  057%=      5-min Rain = 0
KTA1 140347Z 05005KT 27/18 A3006 RMK A01 T02690177  RH  057%=      5-min Rain = 0
KTA1 140348Z 05005KT 27/18 A3006 RMK A01 T02690177  RH  057%=      5-min Rain = 0
KTA1 140349Z 05005KT 27/18 A3006 RMK A01 T02690176  RH  057%=      5-min Rain = 0
KTA1 140350Z 05005KT 27/18 A3006 RMK A01 T02690176  RH  056%=      5-min Rain = 0
KTA1 140351Z 05005KT 27/18 A3006 RMK A01 T02700175  RH  056%=      5-min Rain = 0
KTA1 140352Z 05005KT 27/18 A3006 RMK A01 T02700176  RH  056%=      5-min Rain = 0
KTA1 140353Z 06005KT 27/18 A3006 RMK A01 T02710176  RH  056%=      5-min Rain = 0
KTA1 140354Z 06005KT 27/18 A3006 RMK A01 T02710176  RH  056%=      5-min Rain = 0
KTA1 140355Z 07004KT 27/18 A3006 RMK A01 T02710176  RH  056%=      5-min Rain = 0
KTA1 140356Z 07005KT 27/18 A3006 RMK A01 T02720176  RH  056%=      5-min Rain = 0
KTA1 140357Z 08004KT 27/18 A3006 RMK A01 T02720176  RH  056%=      5-min Rain = 0
KTA1 140358Z 08004KT 27/18 A3006 RMK A01 T02730175  RH  055%=      5-min Rain = 0
KTA1 140359Z 09004KT 27/18 A3006 RMK A01 T02740175  RH  055%=      5-min Rain = 0
KTA1 140400Z 09004KT 27/18 A3006 RMK A01 T02740175  RH  055%=      5-min Rain = 0
KTA1 140401Z 09004KT 28/18 A3006 RMK A01 T02750175  RH  054%=      5-min Rain = 0
KTA1 140402Z 09004KT 28/18 A3006 RMK A01 T02750175  RH  054%=      5-min Rain = 0
KTA1 140403Z 09004KT 28/18 A3006 RMK A01 T02760175  RH  054%=      5-min Rain = 0
KTA1 140404Z 09005KT 28/18 A3006 RMK A01 T02760176  RH  054%=      5-min Rain = 0
KTA1 140405Z 09005KT 28/18 A3006 RMK A01 T02760176  RH  054%=      5-min Rain = 0
KTA1 140406Z 08005KT 28/18 A3006 RMK A01 T02760177  RH  055%=      5-min Rain = 0
KTA1 140407Z 08005KT 28/18 A3006 RMK A01 T02760177  RH  055%=      5-min Rain = 0
KTA1 140408Z 09005KT 28/18 A3006 RMK A01 T02760178  RH  055%=      5-min Rain = 0
KTA1 140409Z 09005KT 28/18 A3007 RMK A01 T02760179  RH  055%=      5-min Rain = 0
KTA1 140410Z 08005KT 28/18 A3007 RMK A01 T02750178  RH  055%=      5-min Rain = 0
KTA1 140411Z 07005KT 28/18 A3007 RMK A01 T02750178  RH  055%=      5-min Rain = 0
KTA1 140412Z 08005KT 28/18 A3007 RMK A01 T02750177  RH  055%=      5-min Rain = 0
KTA1 140413Z 08005KT 28/18 A3007 RMK A01 T02760177  RH  055%=      5-min Rain = 0
KTA1 140414Z 08005KT 28/18 A3007 RMK A01 T02770178  RH  055%=      5-min Rain = 0
KTA1 140415Z 08005KT 28/18 A3007 RMK A01 T02770178  RH  055%=      5-min Rain = 0
KTA1 140416Z 08006KT 28/18 A3007 RMK A01 T02780180  RH  055%=      5-min Rain = 0
KTA1 140417Z 08006KT 28/18 A3007 RMK A01 T02780182  RH  056%=      5-min Rain = 0
KTA1 140418Z 08006KT 28/18 A3007 RMK A01 T02780182  RH  056%=      5-min Rain = 0
KTA1 140419Z 07005KT 28/18 A3007 RMK A01 T02780183  RH  056%=      5-min Rain = 0
KTA1 140420Z 08005KT 28/18 A3007 RMK A01 T02790183  RH  056%=      5-min Rain = 0
KTA1 140421Z 07006KT 28/18 A3007 RMK A01 T02790184  RH  056%=      5-min Rain = 0
KTA1 140422Z 07005KT 28/19 A3007 RMK A01 T02790185  RH  056%=      5-min Rain = 0
KTA1 140423Z 07005KT 28/19 A3007 RMK A01 T02790185  RH  057%=      5-min Rain = 0
KTA1 140424Z 08004KT 28/19 A3007 RMK A01 T02790186  RH  057%=      5-min Rain = 0
KTA1 140425Z 08005KT 28/19 A3007 RMK A01 T02790186  RH  057%=      5-min Rain = 0
KTA1 140426Z 08005KT 28/19 A3007 RMK A01 T02790186  RH  057%=      5-min Rain = 0
KTA1 140427Z 08006KT 28/19 A3007 RMK A01 T02790186  RH  057%=      5-min Rain = 0
KTA1 140428Z 08006KT 28/19 A3007 RMK A01 T02790186  RH  057%=      5-min Rain = 0
KTA1 140429Z 08006KT 28/19 A3007 RMK A01 T02800186  RH  057%=      5-min Rain = 0
KTA1 140430Z 08007KT 28/19 A3007 RMK A01 T02800187  RH  057%=      5-min Rain = 0
KTA1 140431Z 08007KT 28/19 A3007 RMK A01 T02800187  RH  057%=      5-min Rain = 0
KTA1 140432Z 08008KT 28/19 A3007 RMK A01 T02800188  RH  057%=      5-min Rain = 0
KTA1 140433Z 08008KT 28/19 A3007 RMK A01 T02810188  RH  057%=      5-min Rain = 0
KTA1 140434Z 07008KT 28/19 A3007 RMK A01 T02820188  RH  057%=      5-min Rain = 0
KTA1 140435Z 08008KT 28/19 A3007 RMK A01 T02820189  RH  057%=      5-min Rain = 0
KTA1 140436Z 07007KT 28/19 A3007 RMK A01 T02830191  RH  058%=      5-min Rain = 0
KTA1 140437Z 07007KT 28/19 A3007 RMK A01 T02820192  RH  058%=      5-min Rain = 0
KTA1 140438Z 07008KT 28/19 A3007 RMK A01 T02820193  RH  058%=      5-min Rain = 0
KTA1 140439Z 07008KT 28/19 A3007 RMK A01 T02820193  RH  059%=      5-min Rain = 0
KTA1 140440Z 07008KT 28/19 A3007 RMK A01 T02810193  RH  059%=      5-min Rain = 0
KTA1 140441Z 07008KT 28/19 A3007 RMK A01 T02810191  RH  058%=      5-min Rain = 0
KTA1 140442Z 07008KT 28/19 A3007 RMK A01 T02810189  RH  057%=      5-min Rain = 0
KTA1 140443Z 08007KT 28/19 A3007 RMK A01 T02820188  RH  057%=      5-min Rain = 0
KTA1 140444Z 07007KT 28/19 A3007 RMK A01 T02820188  RH  057%=      5-min Rain = 0
KTA1 140445Z 07007KT 28/19 A3007 RMK A01 T02830188  RH  057%=      5-min Rain = 0
KTA1 140446Z 07007KT 28/19 A3007 RMK A01 T02820188  RH  057%=      5-min Rain = 0
KTA1 140447Z 08007KT 28/19 A3007 RMK A01 T02820188  RH  057%=      5-min Rain = 0
KTA1 140448Z 07006KT 28/19 A3007 RMK A01 T02820189  RH  057%=      5-min Rain = 0
KTA1 140449Z 07007KT 28/19 A3007 RMK A01 T02820189  RH  057%=      5-min Rain = 0
KTA1 140450Z 07007KT 28/19 A3007 RMK A01 T02820188  RH  057%=      5-min Rain = 0
KTA1 140451Z 07006KT 28/19 A3007 RMK A01 T02820188  RH  057%=      5-min Rain = 0
KTA1 140452Z 07006KT 28/19 A3007 RMK A01 T02820188  RH  057%=      5-min Rain = 0
KTA1 140453Z 07006KT 28/19 A3007 RMK A01 T02820188  RH  057%=      5-min Rain = 0
KTA1 140454Z 07006KT 28/19 A3007 RMK A01 T02810189  RH  057%=      5-min Rain = 0
KTA1 140455Z 07006KT 28/19 A3007 RMK A01 T02810191  RH  058%=      5-min Rain = 0
KTA1 140456Z 07006KT 28/19 A3007 RMK A01 T02810191  RH  058%=      5-min Rain = 0
KTA1 140457Z 07007KT 28/19 A3007 RMK A01 T02800192  RH  058%=      5-min Rain = 0
KTA1 140458Z 07007KT 28/19 A3007 RMK A01 T02800192  RH  059%=      5-min Rain = 0
KTA1 140459Z 07008KT 28/19 A3007 RMK A01 T02800192  RH  059%=      5-min Rain = 0

Page generated in 0.1315 seconds.